<?xml version='1.0' encoding='UTF-8'?>
<gpx version="1.1" creator="https://www.komoot.de" xmlns="http://www.topografix.com/GPX/1/1" xmlns:xsi="http://www.w3.org/2001/XMLSchema-instance" xsi:schemaLocation="http://www.topografix.com/GPX/1/1 http://www.topografix.com/GPX/1/1/gpx.xsd">
  <metadata>
    <name>Mountainbike-Tour</name>
    <author>
      <link href="https://www.komoot.de">
        <text>komoot</text>
        <type>text/html</type>
      </link>
    </author>
  </metadata>
  <trk>
    <name>Mountainbike-Tour</name>
    <type>e_mtb</type>
    <trkseg>
      <trkpt lat="47.075363" lon="10.969695">
        <ele>1176.466133</ele>
        <time>2026-08-21T12:38:54.579Z</time>
      </trkpt>
      <trkpt lat="47.075272" lon="10.969657">
        <ele>1176.466133</ele>
        <time>2026-08-21T12:38:58.625Z</time>
      </trkpt>
      <trkpt lat="47.075138" lon="10.969827">
        <ele>1176.466133</ele>
        <time>2026-08-21T12:39:06.199Z</time>
      </trkpt>
      <trkpt lat="47.075042" lon="10.969864">
        <ele>1176.466133</ele>
        <time>2026-08-21T12:39:10.445Z</time>
      </trkpt>
      <trkpt lat="47.074936" lon="10.969893">
        <ele>1176.466133</ele>
        <time>2026-08-21T12:39:15.056Z</time>
      </trkpt>
      <trkpt lat="47.074830" lon="10.969934">
        <ele>1176.466133</ele>
        <time>2026-08-21T12:39:19.745Z</time>
      </trkpt>
      <trkpt lat="47.074756" lon="10.970015">
        <ele>1176.466133</ele>
        <time>2026-08-21T12:39:23.693Z</time>
      </trkpt>
      <trkpt lat="47.074732" lon="10.969955">
        <ele>1176.466133</ele>
        <time>2026-08-21T12:39:25.721Z</time>
      </trkpt>
      <trkpt lat="47.074013" lon="10.970118">
        <ele>1178.045752</ele>
        <time>2026-08-21T12:39:42.427Z</time>
      </trkpt>
      <trkpt lat="47.073992" lon="10.970123">
        <ele>1178.106163</ele>
        <time>2026-08-21T12:39:42.899Z</time>
      </trkpt>
      <trkpt lat="47.073514" lon="10.970261">
        <ele>1179.489498</ele>
        <time>2026-08-21T12:39:54.469Z</time>
      </trkpt>
      <trkpt lat="47.073122" lon="10.970379">
        <ele>1180.625788</ele>
        <time>2026-08-21T12:40:04.200Z</time>
      </trkpt>
      <trkpt lat="47.072960" lon="10.970439">
        <ele>1181.100218</ele>
        <time>2026-08-21T12:40:08.290Z</time>
      </trkpt>
      <trkpt lat="47.072912" lon="10.970459">
        <ele>1181.241903</ele>
        <time>2026-08-21T12:40:09.512Z</time>
      </trkpt>
      <trkpt lat="47.073023" lon="10.971398">
        <ele>1185.205973</ele>
        <time>2026-08-21T12:40:26.307Z</time>
      </trkpt>
      <trkpt lat="47.073153" lon="10.972183">
        <ele>1188.960817</ele>
        <time>2026-08-21T12:40:42.333Z</time>
      </trkpt>
      <trkpt lat="47.073194" lon="10.972806">
        <ele>1191.869887</ele>
        <time>2026-08-21T12:40:57.441Z</time>
      </trkpt>
      <trkpt lat="47.073199" lon="10.973110">
        <ele>1193.283231</ele>
        <time>2026-08-21T12:41:07.770Z</time>
      </trkpt>
      <trkpt lat="47.073166" lon="10.973696">
        <ele>1197.269678</ele>
        <time>2026-08-21T12:41:28.873Z</time>
      </trkpt>
      <trkpt lat="47.073134" lon="10.974068">
        <ele>1200.020053</ele>
        <time>2026-08-21T12:41:42.299Z</time>
      </trkpt>
      <trkpt lat="47.073027" lon="10.974273">
        <ele>1201.914578</ele>
        <time>2026-08-21T12:41:51.219Z</time>
      </trkpt>
      <trkpt lat="47.072913" lon="10.974301">
        <ele>1203.159442</ele>
        <time>2026-08-21T12:41:57.122Z</time>
      </trkpt>
      <trkpt lat="47.072668" lon="10.974111">
        <ele>1206.143591</ele>
        <time>2026-08-21T12:42:07.787Z</time>
      </trkpt>
      <trkpt lat="47.072535" lon="10.973918">
        <ele>1208.157570</ele>
        <time>2026-08-21T12:42:15.344Z</time>
      </trkpt>
      <trkpt lat="47.072389" lon="10.973546">
        <ele>1211.306947</ele>
        <time>2026-08-21T12:42:28.402Z</time>
      </trkpt>
      <trkpt lat="47.072320" lon="10.973073">
        <ele>1215.202819</ele>
        <time>2026-08-21T12:42:43.556Z</time>
      </trkpt>
      <trkpt lat="47.072326" lon="10.972857">
        <ele>1217.125604</ele>
        <time>2026-08-21T12:42:49.732Z</time>
      </trkpt>
      <trkpt lat="47.072297" lon="10.972807">
        <ele>1217.709732</ele>
        <time>2026-08-21T12:42:51.558Z</time>
      </trkpt>
      <trkpt lat="47.072240" lon="10.972749">
        <ele>1218.615399</ele>
        <time>2026-08-21T12:42:54.403Z</time>
      </trkpt>
      <trkpt lat="47.071992" lon="10.972772">
        <ele>1221.860572</ele>
        <time>2026-08-21T12:43:05.303Z</time>
      </trkpt>
      <trkpt lat="47.071775" lon="10.972800">
        <ele>1224.705372</ele>
        <time>2026-08-21T12:43:13.827Z</time>
      </trkpt>
      <trkpt lat="47.071494" lon="10.972637">
        <ele>1228.651061</ele>
        <time>2026-08-21T12:43:28.863Z</time>
      </trkpt>
      <trkpt lat="47.071466" lon="10.972717">
        <ele>1229.451080</ele>
        <time>2026-08-21T12:43:31.702Z</time>
      </trkpt>
      <trkpt lat="47.071484" lon="10.972775">
        <ele>1230.017994</ele>
        <time>2026-08-21T12:43:34.137Z</time>
      </trkpt>
      <trkpt lat="47.071783" lon="10.973010">
        <ele>1234.446990</ele>
        <time>2026-08-21T12:43:54.865Z</time>
      </trkpt>
      <trkpt lat="47.071909" lon="10.973148">
        <ele>1236.499842</ele>
        <time>2026-08-21T12:44:04.901Z</time>
      </trkpt>
      <trkpt lat="47.071990" lon="10.973267">
        <ele>1238.336434</ele>
        <time>2026-08-21T12:44:11.676Z</time>
      </trkpt>
      <trkpt lat="47.072035" lon="10.973411">
        <ele>1240.118035</ele>
        <time>2026-08-21T12:44:17.980Z</time>
      </trkpt>
      <trkpt lat="47.072024" lon="10.973472">
        <ele>1240.827618</ele>
        <time>2026-08-21T12:44:20.743Z</time>
      </trkpt>
      <trkpt lat="47.072004" lon="10.973557">
        <ele>1241.838878</ele>
        <time>2026-08-21T12:44:24.684Z</time>
      </trkpt>
      <trkpt lat="47.072024" lon="10.973641">
        <ele>1242.839516</ele>
        <time>2026-08-21T12:44:27.869Z</time>
      </trkpt>
      <trkpt lat="47.072113" lon="10.973797">
        <ele>1245.127871</ele>
        <time>2026-08-21T12:44:36.190Z</time>
      </trkpt>
      <trkpt lat="47.072233" lon="10.974502">
        <ele>1253.299424</ele>
        <time>2026-08-21T12:45:07.774Z</time>
      </trkpt>
      <trkpt lat="47.072205" lon="10.974669">
        <ele>1255.233403</ele>
        <time>2026-08-21T12:45:14.351Z</time>
      </trkpt>
      <trkpt lat="47.072140" lon="10.974860">
        <ele>1257.634395</ele>
        <time>2026-08-21T12:45:22.679Z</time>
      </trkpt>
      <trkpt lat="47.072110" lon="10.974895">
        <ele>1258.267042</ele>
        <time>2026-08-21T12:45:25.057Z</time>
      </trkpt>
      <trkpt lat="47.072063" lon="10.974880">
        <ele>1259.061162</ele>
        <time>2026-08-21T12:45:27.961Z</time>
      </trkpt>
      <trkpt lat="47.072031" lon="10.974821">
        <ele>1259.909288</ele>
        <time>2026-08-21T12:45:31.088Z</time>
      </trkpt>
      <trkpt lat="47.072051" lon="10.974596">
        <ele>1262.460876</ele>
        <time>2026-08-21T12:45:39.357Z</time>
      </trkpt>
      <trkpt lat="47.071903" lon="10.974080">
        <ele>1268.923666</ele>
        <time>2026-08-21T12:46:00.462Z</time>
      </trkpt>
      <trkpt lat="47.071835" lon="10.973927">
        <ele>1271.123838</ele>
        <time>2026-08-21T12:46:07.755Z</time>
      </trkpt>
      <trkpt lat="47.071610" lon="10.973543">
        <ele>1277.224167</ele>
        <time>2026-08-21T12:46:27.704Z</time>
      </trkpt>
      <trkpt lat="47.071554" lon="10.973562">
        <ele>1278.240455</ele>
        <time>2026-08-21T12:46:31.186Z</time>
      </trkpt>
      <trkpt lat="47.071552" lon="10.973640">
        <ele>1279.180472</ele>
        <time>2026-08-21T12:46:34.457Z</time>
      </trkpt>
      <trkpt lat="47.071652" lon="10.973892">
        <ele>1282.692838</ele>
        <time>2026-08-21T12:46:45.926Z</time>
      </trkpt>
      <trkpt lat="47.071666" lon="10.974092">
        <ele>1285.114115</ele>
        <time>2026-08-21T12:46:53.979Z</time>
      </trkpt>
      <trkpt lat="47.071593" lon="10.974365">
        <ele>1288.646151</ele>
        <time>2026-08-21T12:47:05.457Z</time>
      </trkpt>
      <trkpt lat="47.070524" lon="10.976360">
        <ele>1324.826839</ele>
        <time>2026-08-21T12:49:13.225Z</time>
      </trkpt>
      <trkpt lat="47.070405" lon="10.976643">
        <ele>1329.902048</ele>
        <time>2026-08-21T12:49:30.612Z</time>
      </trkpt>
      <trkpt lat="47.070297" lon="10.976992">
        <ele>1335.751619</ele>
        <time>2026-08-21T12:49:50.593Z</time>
      </trkpt>
      <trkpt lat="47.070199" lon="10.977292">
        <ele>1340.697694</ele>
        <time>2026-08-21T12:50:07.958Z</time>
      </trkpt>
      <trkpt lat="47.070113" lon="10.977393">
        <ele>1343.025672</ele>
        <time>2026-08-21T12:50:16.402Z</time>
      </trkpt>
      <trkpt lat="47.070073" lon="10.977348">
        <ele>1344.090907</ele>
        <time>2026-08-21T12:50:20.255Z</time>
      </trkpt>
      <trkpt lat="47.069996" lon="10.978007">
        <ele>1353.717596</ele>
        <time>2026-08-21T12:50:57.751Z</time>
      </trkpt>
      <trkpt lat="47.069779" lon="10.978844">
        <ele>1366.612016</ele>
        <time>2026-08-21T12:51:43.389Z</time>
      </trkpt>
      <trkpt lat="47.069559" lon="10.980571">
        <ele>1386.280924</ele>
        <time>2026-08-21T12:53:09.302Z</time>
      </trkpt>
      <trkpt lat="47.069474" lon="10.980914">
        <ele>1389.613302</ele>
        <time>2026-08-21T12:53:27.471Z</time>
      </trkpt>
      <trkpt lat="47.069257" lon="10.981564">
        <ele>1396.222258</ele>
        <time>2026-08-21T12:53:53.740Z</time>
      </trkpt>
      <trkpt lat="47.069220" lon="10.981855">
        <ele>1398.924959</ele>
        <time>2026-08-21T12:54:01.419Z</time>
      </trkpt>
      <trkpt lat="47.069103" lon="10.982223">
        <ele>1399.942818</ele>
        <time>2026-08-21T12:54:10.247Z</time>
      </trkpt>
      <trkpt lat="47.069116" lon="10.982285">
        <ele>1399.736371</ele>
        <time>2026-08-21T12:54:11.556Z</time>
      </trkpt>
      <trkpt lat="47.069338" lon="10.982466">
        <ele>1398.549904</ele>
        <time>2026-08-21T12:54:18.838Z</time>
      </trkpt>
      <trkpt lat="47.069442" lon="10.982601">
        <ele>1397.901292</ele>
        <time>2026-08-21T12:54:22.246Z</time>
      </trkpt>
      <trkpt lat="47.069672" lon="10.982626">
        <ele>1396.823712</ele>
        <time>2026-08-21T12:54:27.445Z</time>
      </trkpt>
      <trkpt lat="47.069762" lon="10.982671">
        <ele>1396.379485</ele>
        <time>2026-08-21T12:54:29.506Z</time>
      </trkpt>
      <trkpt lat="47.069961" lon="10.982995">
        <ele>1394.991083</ele>
        <time>2026-08-21T12:54:35.724Z</time>
      </trkpt>
      <trkpt lat="47.070139" lon="10.983085">
        <ele>1394.111470</ele>
        <time>2026-08-21T12:54:39.680Z</time>
      </trkpt>
      <trkpt lat="47.070514" lon="10.983530">
        <ele>1392.104129</ele>
        <time>2026-08-21T12:54:50.858Z</time>
      </trkpt>
      <trkpt lat="47.070571" lon="10.983627">
        <ele>1391.962929</ele>
        <time>2026-08-21T12:54:53.020Z</time>
      </trkpt>
      <trkpt lat="47.070695" lon="10.984077">
        <ele>1391.427905</ele>
        <time>2026-08-21T12:55:01.488Z</time>
      </trkpt>
      <trkpt lat="47.070750" lon="10.984365">
        <ele>1391.098243</ele>
        <time>2026-08-21T12:55:06.786Z</time>
      </trkpt>
      <trkpt lat="47.070755" lon="10.984494">
        <ele>1390.955835</ele>
        <time>2026-08-21T12:55:09.071Z</time>
      </trkpt>
      <trkpt lat="47.070846" lon="10.984659">
        <ele>1390.721835</ele>
        <time>2026-08-21T12:55:12.726Z</time>
      </trkpt>
      <trkpt lat="47.071137" lon="10.984897">
        <ele>1390.182804</ele>
        <time>2026-08-21T12:55:21.463Z</time>
      </trkpt>
      <trkpt lat="47.071325" lon="10.984970">
        <ele>1389.868122</ele>
        <time>2026-08-21T12:55:27.250Z</time>
      </trkpt>
      <trkpt lat="47.071455" lon="10.985001">
        <ele>1389.654998</ele>
        <time>2026-08-21T12:55:31.331Z</time>
      </trkpt>
      <trkpt lat="47.071549" lon="10.984987">
        <ele>1389.502106</ele>
        <time>2026-08-21T12:55:34.359Z</time>
      </trkpt>
      <trkpt lat="47.071808" lon="10.984833">
        <ele>1391.161241</ele>
        <time>2026-08-21T12:55:44.059Z</time>
      </trkpt>
      <trkpt lat="47.071887" lon="10.984844">
        <ele>1392.023362</ele>
        <time>2026-08-21T12:55:47.148Z</time>
      </trkpt>
      <trkpt lat="47.071984" lon="10.984975">
        <ele>1393.455188</ele>
        <time>2026-08-21T12:55:52.521Z</time>
      </trkpt>
      <trkpt lat="47.072048" lon="10.985346">
        <ele>1396.287038</ele>
        <time>2026-08-21T12:56:04.935Z</time>
      </trkpt>
      <trkpt lat="47.072064" lon="10.986385">
        <ele>1403.976935</ele>
        <time>2026-08-21T12:56:45.927Z</time>
      </trkpt>
      <trkpt lat="47.072136" lon="10.986884">
        <ele>1407.751160</ele>
        <time>2026-08-21T12:57:07.891Z</time>
      </trkpt>
      <trkpt lat="47.072139" lon="10.987021">
        <ele>1408.765394</ele>
        <time>2026-08-21T12:57:13.390Z</time>
      </trkpt>
      <trkpt lat="47.072055" lon="10.987394">
        <ele>1411.446137</ele>
        <time>2026-08-21T12:57:28.033Z</time>
      </trkpt>
      <trkpt lat="47.072061" lon="10.987505">
        <ele>1412.203681</ele>
        <time>2026-08-21T12:57:31.888Z</time>
      </trkpt>
      <trkpt lat="47.072090" lon="10.987564">
        <ele>1412.698692</ele>
        <time>2026-08-21T12:57:34.335Z</time>
      </trkpt>
      <trkpt lat="47.072189" lon="10.987615">
        <ele>1413.746711</ele>
        <time>2026-08-21T12:57:39.323Z</time>
      </trkpt>
      <trkpt lat="47.072263" lon="10.987720">
        <ele>1414.774668</ele>
        <time>2026-08-21T12:57:43.919Z</time>
      </trkpt>
      <trkpt lat="47.072325" lon="10.987969">
        <ele>1416.578351</ele>
        <time>2026-08-21T12:57:51.408Z</time>
      </trkpt>
      <trkpt lat="47.072375" lon="10.988441">
        <ele>1419.828115</ele>
        <time>2026-08-21T12:58:03.823Z</time>
      </trkpt>
      <trkpt lat="47.072371" lon="10.988711">
        <ele>1421.665439</ele>
        <time>2026-08-21T12:58:10.721Z</time>
      </trkpt>
      <trkpt lat="47.072323" lon="10.988874">
        <ele>1422.873593</ele>
        <time>2026-08-21T12:58:15.443Z</time>
      </trkpt>
      <trkpt lat="47.072325" lon="10.989165">
        <ele>1424.853454</ele>
        <time>2026-08-21T12:58:23.548Z</time>
      </trkpt>
      <trkpt lat="47.072370" lon="10.989319">
        <ele>1425.993519</ele>
        <time>2026-08-21T12:58:28.693Z</time>
      </trkpt>
      <trkpt lat="47.072399" lon="10.989580">
        <ele>1428.272026</ele>
        <time>2026-08-21T12:58:37.713Z</time>
      </trkpt>
      <trkpt lat="47.072472" lon="10.989766">
        <ele>1430.460680</ele>
        <time>2026-08-21T12:58:46.146Z</time>
      </trkpt>
      <trkpt lat="47.072683" lon="10.989960">
        <ele>1434.187412</ele>
        <time>2026-08-21T12:59:02.114Z</time>
      </trkpt>
      <trkpt lat="47.072785" lon="10.990169">
        <ele>1436.808809</ele>
        <time>2026-08-21T12:59:14.027Z</time>
      </trkpt>
      <trkpt lat="47.072798" lon="10.990270">
        <ele>1437.856756</ele>
        <time>2026-08-21T12:59:18.746Z</time>
      </trkpt>
      <trkpt lat="47.072773" lon="10.990502">
        <ele>1440.251475</ele>
        <time>2026-08-21T12:59:29.585Z</time>
      </trkpt>
      <trkpt lat="47.072698" lon="10.990792">
        <ele>1443.414085</ele>
        <time>2026-08-21T12:59:43.720Z</time>
      </trkpt>
      <trkpt lat="47.072712" lon="10.990951">
        <ele>1445.048622</ele>
        <time>2026-08-21T12:59:50.922Z</time>
      </trkpt>
      <trkpt lat="47.072751" lon="10.991085">
        <ele>1446.534300</ele>
        <time>2026-08-21T12:59:57.469Z</time>
      </trkpt>
      <trkpt lat="47.072792" lon="10.991226">
        <ele>1448.097367</ele>
        <time>2026-08-21T13:00:04.215Z</time>
      </trkpt>
      <trkpt lat="47.072866" lon="10.991776">
        <ele>1453.796083</ele>
        <time>2026-08-21T13:00:28.512Z</time>
      </trkpt>
      <trkpt lat="47.072927" lon="10.992035">
        <ele>1455.757819</ele>
        <time>2026-08-21T13:00:40.084Z</time>
      </trkpt>
      <trkpt lat="47.072899" lon="10.992629">
        <ele>1460.020041</ele>
        <time>2026-08-21T13:01:03.147Z</time>
      </trkpt>
      <trkpt lat="47.072729" lon="10.993166">
        <ele>1464.259046</ele>
        <time>2026-08-21T13:01:21.234Z</time>
      </trkpt>
      <trkpt lat="47.072472" lon="10.993689">
        <ele>1468.875612</ele>
        <time>2026-08-21T13:01:38.845Z</time>
      </trkpt>
      <trkpt lat="47.072417" lon="10.994279">
        <ele>1473.094321</ele>
        <time>2026-08-21T13:01:55.352Z</time>
      </trkpt>
      <trkpt lat="47.072467" lon="10.994661">
        <ele>1475.621799</ele>
        <time>2026-08-21T13:02:06.783Z</time>
      </trkpt>
      <trkpt lat="47.072452" lon="10.995524">
        <ele>1481.230992</ele>
        <time>2026-08-21T13:02:34.092Z</time>
      </trkpt>
      <trkpt lat="47.072565" lon="10.996457">
        <ele>1487.388288</ele>
        <time>2026-08-21T13:03:05.340Z</time>
      </trkpt>
      <trkpt lat="47.072554" lon="10.997068">
        <ele>1490.712970</ele>
        <time>2026-08-21T13:03:25.347Z</time>
      </trkpt>
      <trkpt lat="47.072521" lon="10.997349">
        <ele>1491.787619</ele>
        <time>2026-08-21T13:03:34.710Z</time>
      </trkpt>
      <trkpt lat="47.072544" lon="10.997535">
        <ele>1492.500067</ele>
        <time>2026-08-21T13:03:40.592Z</time>
      </trkpt>
      <trkpt lat="47.072721" lon="10.998150">
        <ele>1495.016296</ele>
        <time>2026-08-21T13:03:56.459Z</time>
      </trkpt>
      <trkpt lat="47.072719" lon="10.998404">
        <ele>1495.973621</ele>
        <time>2026-08-21T13:04:01.984Z</time>
      </trkpt>
      <trkpt lat="47.072763" lon="10.998676">
        <ele>1497.027236</ele>
        <time>2026-08-21T13:04:08.049Z</time>
      </trkpt>
      <trkpt lat="47.072892" lon="10.998897">
        <ele>1498.124168</ele>
        <time>2026-08-21T13:04:14.403Z</time>
      </trkpt>
      <trkpt lat="47.073224" lon="10.999414">
        <ele>1500.688954</ele>
        <time>2026-08-21T13:04:29.909Z</time>
      </trkpt>
      <trkpt lat="47.073297" lon="10.999638">
        <ele>1501.521925</ele>
        <time>2026-08-21T13:04:35.364Z</time>
      </trkpt>
      <trkpt lat="47.073175" lon="11.000807">
        <ele>1505.488958</ele>
        <time>2026-08-21T13:05:02.210Z</time>
      </trkpt>
      <trkpt lat="47.073131" lon="11.002284">
        <ele>1510.441442</ele>
        <time>2026-08-21T13:05:43.434Z</time>
      </trkpt>
      <trkpt lat="47.073184" lon="11.003003">
        <ele>1512.858418</ele>
        <time>2026-08-21T13:06:00.745Z</time>
      </trkpt>
      <trkpt lat="47.073198" lon="11.003587">
        <ele>1514.811390</ele>
        <time>2026-08-21T13:06:13.784Z</time>
      </trkpt>
      <trkpt lat="47.073179" lon="11.003911">
        <ele>1515.898224</ele>
        <time>2026-08-21T13:06:20.760Z</time>
      </trkpt>
      <trkpt lat="47.073074" lon="11.004259">
        <ele>1517.170285</ele>
        <time>2026-08-21T13:06:29.023Z</time>
      </trkpt>
      <trkpt lat="47.072916" lon="11.004646">
        <ele>1519.665438</ele>
        <time>2026-08-21T13:06:39.611Z</time>
      </trkpt>
      <trkpt lat="47.072723" lon="11.005418">
        <ele>1524.636537</ele>
        <time>2026-08-21T13:07:00.689Z</time>
      </trkpt>
      <trkpt lat="47.072490" lon="11.006123">
        <ele>1529.373446</ele>
        <time>2026-08-21T13:07:24.661Z</time>
      </trkpt>
      <trkpt lat="47.072398" lon="11.006562">
        <ele>1532.149948</ele>
        <time>2026-08-21T13:07:41.820Z</time>
      </trkpt>
      <trkpt lat="47.072440" lon="11.006826">
        <ele>1533.911835</ele>
        <time>2026-08-21T13:07:53.392Z</time>
      </trkpt>
      <trkpt lat="47.072543" lon="11.007135">
        <ele>1536.688377</ele>
        <time>2026-08-21T13:08:08.786Z</time>
      </trkpt>
      <trkpt lat="47.072533" lon="11.007259">
        <ele>1537.696146</ele>
        <time>2026-08-21T13:08:14.288Z</time>
      </trkpt>
      <trkpt lat="47.072441" lon="11.007480">
        <ele>1539.786588</ele>
        <time>2026-08-21T13:08:25.486Z</time>
      </trkpt>
      <trkpt lat="47.072192" lon="11.007922">
        <ele>1544.416076</ele>
        <time>2026-08-21T13:08:49.294Z</time>
      </trkpt>
      <trkpt lat="47.072081" lon="11.008172">
        <ele>1546.824673</ele>
        <time>2026-08-21T13:09:01.142Z</time>
      </trkpt>
      <trkpt lat="47.071853" lon="11.009430">
        <ele>1554.864407</ele>
        <time>2026-08-21T13:09:40.025Z</time>
      </trkpt>
      <trkpt lat="47.071801" lon="11.009821">
        <ele>1555.023871</ele>
        <time>2026-08-21T13:09:48.376Z</time>
      </trkpt>
      <trkpt lat="47.071838" lon="11.010884">
        <ele>1555.449919</ele>
        <time>2026-08-21T13:10:07.524Z</time>
      </trkpt>
      <trkpt lat="47.071860" lon="11.011135">
        <ele>1555.551216</ele>
        <time>2026-08-21T13:10:10.178Z</time>
      </trkpt>
      <trkpt lat="47.071833" lon="11.011452">
        <ele>1555.679092</ele>
        <time>2026-08-21T13:10:13.702Z</time>
      </trkpt>
      <trkpt lat="47.071786" lon="11.011567">
        <ele>1555.732775</ele>
        <time>2026-08-21T13:10:15.344Z</time>
      </trkpt>
      <trkpt lat="47.071574" lon="11.011893">
        <ele>1556.876629</ele>
        <time>2026-08-21T13:10:22.121Z</time>
      </trkpt>
      <trkpt lat="47.071561" lon="11.012250">
        <ele>1558.164482</ele>
        <time>2026-08-21T13:10:28.326Z</time>
      </trkpt>
      <trkpt lat="47.071473" lon="11.012677">
        <ele>1559.771535</ele>
        <time>2026-08-21T13:10:37.211Z</time>
      </trkpt>
      <trkpt lat="47.071428" lon="11.012920">
        <ele>1560.678672</ele>
        <time>2026-08-21T13:10:43.033Z</time>
      </trkpt>
      <trkpt lat="47.071338" lon="11.013385">
        <ele>1562.420063</ele>
        <time>2026-08-21T13:10:55.008Z</time>
      </trkpt>
      <trkpt lat="47.071213" lon="11.013711">
        <ele>1563.767726</ele>
        <time>2026-08-21T13:11:04.756Z</time>
      </trkpt>
      <trkpt lat="47.071206" lon="11.014427">
        <ele>1566.011817</ele>
        <time>2026-08-21T13:11:23.701Z</time>
      </trkpt>
      <trkpt lat="47.070959" lon="11.015455">
        <ele>1568.673842</ele>
        <time>2026-08-21T13:11:44.350Z</time>
      </trkpt>
      <trkpt lat="47.070921" lon="11.016017">
        <ele>1570.053007</ele>
        <time>2026-08-21T13:11:52.896Z</time>
      </trkpt>
      <trkpt lat="47.070946" lon="11.016444">
        <ele>1571.099597</ele>
        <time>2026-08-21T13:11:58.857Z</time>
      </trkpt>
      <trkpt lat="47.070917" lon="11.017104">
        <ele>1572.979596</ele>
        <time>2026-08-21T13:12:09.161Z</time>
      </trkpt>
      <trkpt lat="47.070830" lon="11.017450">
        <ele>1574.128855</ele>
        <time>2026-08-21T13:12:15.408Z</time>
      </trkpt>
      <trkpt lat="47.070735" lon="11.017811">
        <ele>1575.334775</ele>
        <time>2026-08-21T13:12:22.512Z</time>
      </trkpt>
      <trkpt lat="47.070439" lon="11.018366">
        <ele>1577.531279</ele>
        <time>2026-08-21T13:12:37.383Z</time>
      </trkpt>
      <trkpt lat="47.070415" lon="11.018570">
        <ele>1578.176360</ele>
        <time>2026-08-21T13:12:42.219Z</time>
      </trkpt>
      <trkpt lat="47.070353" lon="11.018788">
        <ele>1578.912496</ele>
        <time>2026-08-21T13:12:47.906Z</time>
      </trkpt>
      <trkpt lat="47.070199" lon="11.019129">
        <ele>1580.042349</ele>
        <time>2026-08-21T13:12:58.154Z</time>
      </trkpt>
      <trkpt lat="47.070069" lon="11.019870">
        <ele>1580.729723</ele>
        <time>2026-08-21T13:13:14.939Z</time>
      </trkpt>
      <trkpt lat="47.069846" lon="11.020720">
        <ele>1581.547973</ele>
        <time>2026-08-21T13:13:27.517Z</time>
      </trkpt>
      <trkpt lat="47.069803" lon="11.021108">
        <ele>1581.901102</ele>
        <time>2026-08-21T13:13:32.075Z</time>
      </trkpt>
      <trkpt lat="47.069828" lon="11.021399">
        <ele>1582.164582</ele>
        <time>2026-08-21T13:13:35.347Z</time>
      </trkpt>
      <trkpt lat="47.069818" lon="11.021725">
        <ele>1582.390094</ele>
        <time>2026-08-21T13:13:38.943Z</time>
      </trkpt>
      <trkpt lat="47.069739" lon="11.022745">
        <ele>1582.700246</ele>
        <time>2026-08-21T13:13:50.758Z</time>
      </trkpt>
      <trkpt lat="47.069703" lon="11.022804">
        <ele>1582.724178</ele>
        <time>2026-08-21T13:13:51.700Z</time>
      </trkpt>
      <trkpt lat="47.069505" lon="11.023488">
        <ele>1582.948721</ele>
        <time>2026-08-21T13:14:03.683Z</time>
      </trkpt>
      <trkpt lat="47.069255" lon="11.025345">
        <ele>1587.115544</ele>
        <time>2026-08-21T13:14:39.554Z</time>
      </trkpt>
      <trkpt lat="47.069124" lon="11.025738">
        <ele>1588.542737</ele>
        <time>2026-08-21T13:14:47.854Z</time>
      </trkpt>
      <trkpt lat="47.069042" lon="11.026068">
        <ele>1589.688550</ele>
        <time>2026-08-21T13:14:54.675Z</time>
      </trkpt>
      <trkpt lat="47.068985" lon="11.026769">
        <ele>1592.142756</ele>
        <time>2026-08-21T13:15:09.099Z</time>
      </trkpt>
      <trkpt lat="47.068910" lon="11.026993">
        <ele>1593.507235</ele>
        <time>2026-08-21T13:15:14.601Z</time>
      </trkpt>
      <trkpt lat="47.068415" lon="11.028006">
        <ele>1600.322657</ele>
        <time>2026-08-21T13:15:44.466Z</time>
      </trkpt>
      <trkpt lat="47.068386" lon="11.028046">
        <ele>1600.642015</ele>
        <time>2026-08-21T13:15:45.913Z</time>
      </trkpt>
      <trkpt lat="47.068386" lon="11.028046">
        <ele>1600.642015</ele>
        <time>2026-08-21T13:15:45.963Z</time>
      </trkpt>
      <trkpt lat="47.068386" lon="11.028046">
        <ele>1600.642015</ele>
        <time>2026-08-21T13:15:45.963Z</time>
      </trkpt>
      <trkpt lat="47.068397" lon="11.028063">
        <ele>1600.770199</ele>
        <time>2026-08-21T13:15:46.648Z</time>
      </trkpt>
      <trkpt lat="47.068338" lon="11.028165">
        <ele>1601.501740</ele>
        <time>2026-08-21T13:15:50.556Z</time>
      </trkpt>
      <trkpt lat="47.068266" lon="11.028254">
        <ele>1602.257154</ele>
        <time>2026-08-21T13:15:54.597Z</time>
      </trkpt>
      <trkpt lat="47.068182" lon="11.028306">
        <ele>1602.988816</ele>
        <time>2026-08-21T13:15:58.507Z</time>
      </trkpt>
      <trkpt lat="47.068089" lon="11.028314">
        <ele>1603.736512</ele>
        <time>2026-08-21T13:16:02.508Z</time>
      </trkpt>
      <trkpt lat="47.067992" lon="11.028304">
        <ele>1604.516948</ele>
        <time>2026-08-21T13:16:06.684Z</time>
      </trkpt>
      <trkpt lat="47.067782" lon="11.028272">
        <ele>1606.213089</ele>
        <time>2026-08-21T13:16:15.746Z</time>
      </trkpt>
      <trkpt lat="47.067683" lon="11.028276">
        <ele>1607.165836</ele>
        <time>2026-08-21T13:16:20.001Z</time>
      </trkpt>
      <trkpt lat="47.067593" lon="11.028303">
        <ele>1608.049532</ele>
        <time>2026-08-21T13:16:23.942Z</time>
      </trkpt>
      <trkpt lat="47.067505" lon="11.028348">
        <ele>1608.945980</ele>
        <time>2026-08-21T13:16:27.947Z</time>
      </trkpt>
      <trkpt lat="47.067421" lon="11.028403">
        <ele>1609.830787</ele>
        <time>2026-08-21T13:16:31.894Z</time>
      </trkpt>
      <trkpt lat="47.067346" lon="11.028478">
        <ele>1610.703763</ele>
        <time>2026-08-21T13:16:35.793Z</time>
      </trkpt>
      <trkpt lat="47.067274" lon="11.028565">
        <ele>1611.600837</ele>
        <time>2026-08-21T13:16:39.792Z</time>
      </trkpt>
      <trkpt lat="47.067206" lon="11.028672">
        <ele>1612.559749</ele>
        <time>2026-08-21T13:16:44.069Z</time>
      </trkpt>
      <trkpt lat="47.067139" lon="11.028792">
        <ele>1613.576472</ele>
        <time>2026-08-21T13:16:48.605Z</time>
      </trkpt>
      <trkpt lat="47.067076" lon="11.028920">
        <ele>1614.611263</ele>
        <time>2026-08-21T13:16:53.220Z</time>
      </trkpt>
      <trkpt lat="47.067012" lon="11.029041">
        <ele>1615.615108</ele>
        <time>2026-08-21T13:16:57.697Z</time>
      </trkpt>
      <trkpt lat="47.066956" lon="11.029157">
        <ele>1616.546765</ele>
        <time>2026-08-21T13:17:01.853Z</time>
      </trkpt>
      <trkpt lat="47.066879" lon="11.029288">
        <ele>1617.680584</ele>
        <time>2026-08-21T13:17:06.911Z</time>
      </trkpt>
      <trkpt lat="47.066810" lon="11.029392">
        <ele>1618.631909</ele>
        <time>2026-08-21T13:17:11.154Z</time>
      </trkpt>
      <trkpt lat="47.066731" lon="11.029501">
        <ele>1619.674846</ele>
        <time>2026-08-21T13:17:15.807Z</time>
      </trkpt>
      <trkpt lat="47.066665" lon="11.029614">
        <ele>1620.650242</ele>
        <time>2026-08-21T13:17:20.160Z</time>
      </trkpt>
      <trkpt lat="47.066745" lon="11.029736">
        <ele>1621.759914</ele>
        <time>2026-08-21T13:17:25.109Z</time>
      </trkpt>
      <trkpt lat="47.066607" lon="11.029929">
        <ele>1623.607946</ele>
        <time>2026-08-21T13:17:33.091Z</time>
      </trkpt>
      <trkpt lat="47.066335" lon="11.030424">
        <ele>1628.469023</ele>
        <time>2026-08-21T13:17:51.643Z</time>
      </trkpt>
      <trkpt lat="47.066187" lon="11.030636">
        <ele>1630.789302</ele>
        <time>2026-08-21T13:18:01.075Z</time>
      </trkpt>
      <trkpt lat="47.065636" lon="11.031065">
        <ele>1637.787860</ele>
        <time>2026-08-21T13:18:31.535Z</time>
      </trkpt>
      <trkpt lat="47.065255" lon="11.031304">
        <ele>1642.437062</ele>
        <time>2026-08-21T13:18:50.211Z</time>
      </trkpt>
      <trkpt lat="47.064881" lon="11.031711">
        <ele>1646.140225</ele>
        <time>2026-08-21T13:19:09.396Z</time>
      </trkpt>
      <trkpt lat="47.064674" lon="11.031949">
        <ele>1647.960892</ele>
        <time>2026-08-21T13:19:19.090Z</time>
      </trkpt>
      <trkpt lat="47.064476" lon="11.032155">
        <ele>1649.641355</ele>
        <time>2026-08-21T13:19:27.373Z</time>
      </trkpt>
      <trkpt lat="47.064366" lon="11.032303">
        <ele>1650.674565</ele>
        <time>2026-08-21T13:19:32.094Z</time>
      </trkpt>
      <trkpt lat="47.064304" lon="11.032440">
        <ele>1651.450390</ele>
        <time>2026-08-21T13:19:35.507Z</time>
      </trkpt>
      <trkpt lat="47.063914" lon="11.032909">
        <ele>1654.941383</ele>
        <time>2026-08-21T13:19:48.984Z</time>
      </trkpt>
      <trkpt lat="47.063524" lon="11.033322">
        <ele>1657.776491</ele>
        <time>2026-08-21T13:20:02.772Z</time>
      </trkpt>
      <trkpt lat="47.063227" lon="11.033769">
        <ele>1660.036798</ele>
        <time>2026-08-21T13:20:15.859Z</time>
      </trkpt>
      <trkpt lat="47.063085" lon="11.033919">
        <ele>1660.966433</ele>
        <time>2026-08-21T13:20:21.295Z</time>
      </trkpt>
      <trkpt lat="47.062753" lon="11.034119">
        <ele>1662.873439</ele>
        <time>2026-08-21T13:20:32.571Z</time>
      </trkpt>
      <trkpt lat="47.062388" lon="11.034454">
        <ele>1665.160924</ele>
        <time>2026-08-21T13:20:46.007Z</time>
      </trkpt>
      <trkpt lat="47.062179" lon="11.034691">
        <ele>1666.519247</ele>
        <time>2026-08-21T13:20:53.826Z</time>
      </trkpt>
      <trkpt lat="47.061925" lon="11.035479">
        <ele>1669.510047</ele>
        <time>2026-08-21T13:21:09.322Z</time>
      </trkpt>
      <trkpt lat="47.061744" lon="11.035817">
        <ele>1670.985043</ele>
        <time>2026-08-21T13:21:17.128Z</time>
      </trkpt>
      <trkpt lat="47.061524" lon="11.036080">
        <ele>1672.413942</ele>
        <time>2026-08-21T13:21:25.086Z</time>
      </trkpt>
      <trkpt lat="47.061449" lon="11.036291">
        <ele>1673.230456</ele>
        <time>2026-08-21T13:21:29.929Z</time>
      </trkpt>
      <trkpt lat="47.061471" lon="11.036461">
        <ele>1673.824119</ele>
        <time>2026-08-21T13:21:33.318Z</time>
      </trkpt>
      <trkpt lat="47.061374" lon="11.036670">
        <ele>1674.691753</ele>
        <time>2026-08-21T13:21:38.548Z</time>
      </trkpt>
      <trkpt lat="47.061322" lon="11.037011">
        <ele>1677.750212</ele>
        <time>2026-08-21T13:21:46.356Z</time>
      </trkpt>
      <trkpt lat="47.061118" lon="11.037755">
        <ele>1685.029086</ele>
        <time>2026-08-21T13:22:11.211Z</time>
      </trkpt>
      <trkpt lat="47.061072" lon="11.037689">
        <ele>1685.886059</ele>
        <time>2026-08-21T13:22:15.158Z</time>
      </trkpt>
      <trkpt lat="47.061078" lon="11.037364">
        <ele>1688.836793</ele>
        <time>2026-08-21T13:22:29.867Z</time>
      </trkpt>
      <trkpt lat="47.061051" lon="11.037234">
        <ele>1690.070272</ele>
        <time>2026-08-21T13:22:36.063Z</time>
      </trkpt>
      <trkpt lat="47.060966" lon="11.037082">
        <ele>1691.855085</ele>
        <time>2026-08-21T13:22:44.936Z</time>
      </trkpt>
      <trkpt lat="47.060950" lon="11.036829">
        <ele>1694.161153</ele>
        <time>2026-08-21T13:22:56.408Z</time>
      </trkpt>
      <trkpt lat="47.060816" lon="11.036402">
        <ele>1698.427998</ele>
        <time>2026-08-21T13:23:17.363Z</time>
      </trkpt>
      <trkpt lat="47.060780" lon="11.036035">
        <ele>1702.350620</ele>
        <time>2026-08-21T13:23:33.630Z</time>
      </trkpt>
      <trkpt lat="47.060791" lon="11.035836">
        <ele>1704.491719</ele>
        <time>2026-08-21T13:23:42.897Z</time>
      </trkpt>
      <trkpt lat="47.060966" lon="11.035545">
        <ele>1708.654443</ele>
        <time>2026-08-21T13:24:00.981Z</time>
      </trkpt>
      <trkpt lat="47.060986" lon="11.035472">
        <ele>1709.498237</ele>
        <time>2026-08-21T13:24:04.525Z</time>
      </trkpt>
      <trkpt lat="47.060987" lon="11.035389">
        <ele>1710.388468</ele>
        <time>2026-08-21T13:24:08.176Z</time>
      </trkpt>
      <trkpt lat="47.060958" lon="11.035303">
        <ele>1711.417541</ele>
        <time>2026-08-21T13:24:12.136Z</time>
      </trkpt>
      <trkpt lat="47.060892" lon="11.035316">
        <ele>1712.465849</ele>
        <time>2026-08-21T13:24:16.254Z</time>
      </trkpt>
      <trkpt lat="47.060861" lon="11.035560">
        <ele>1715.127631</ele>
        <time>2026-08-21T13:24:26.434Z</time>
      </trkpt>
      <trkpt lat="47.060707" lon="11.035709">
        <ele>1718.031176</ele>
        <time>2026-08-21T13:24:37.793Z</time>
      </trkpt>
      <trkpt lat="47.060525" lon="11.035998">
        <ele>1722.251872</ele>
        <time>2026-08-21T13:24:54.948Z</time>
      </trkpt>
      <trkpt lat="47.060296" lon="11.036521">
        <ele>1728.261781</ele>
        <time>2026-08-21T13:25:20.849Z</time>
      </trkpt>
      <trkpt lat="47.060238" lon="11.036759">
        <ele>1730.024881</ele>
        <time>2026-08-21T13:25:29.833Z</time>
      </trkpt>
      <trkpt lat="47.059993" lon="11.037028">
        <ele>1733.157515</ele>
        <time>2026-08-21T13:25:45.107Z</time>
      </trkpt>
      <trkpt lat="47.059767" lon="11.037463">
        <ele>1736.973402</ele>
        <time>2026-08-21T13:26:01.125Z</time>
      </trkpt>
      <trkpt lat="47.059582" lon="11.038260">
        <ele>1742.846476</ele>
        <time>2026-08-21T13:26:23.525Z</time>
      </trkpt>
      <trkpt lat="47.059586" lon="11.038638">
        <ele>1745.470181</ele>
        <time>2026-08-21T13:26:31.454Z</time>
      </trkpt>
      <trkpt lat="47.059473" lon="11.039158">
        <ele>1747.509676</ele>
        <time>2026-08-21T13:26:41.434Z</time>
      </trkpt>
      <trkpt lat="47.059391" lon="11.039610">
        <ele>1749.257484</ele>
        <time>2026-08-21T13:26:49.489Z</time>
      </trkpt>
      <trkpt lat="47.059191" lon="11.039985">
        <ele>1751.037054</ele>
        <time>2026-08-21T13:26:57.737Z</time>
      </trkpt>
      <trkpt lat="47.059087" lon="11.040963">
        <ele>1754.735730</ele>
        <time>2026-08-21T13:27:19.110Z</time>
      </trkpt>
      <trkpt lat="47.059089" lon="11.041172">
        <ele>1755.683451</ele>
        <time>2026-08-21T13:27:24.332Z</time>
      </trkpt>
      <trkpt lat="47.059035" lon="11.041672">
        <ele>1759.181642</ele>
        <time>2026-08-21T13:27:37.703Z</time>
      </trkpt>
      <trkpt lat="47.058942" lon="11.041991">
        <ele>1761.579328</ele>
        <time>2026-08-21T13:27:47.442Z</time>
      </trkpt>
      <trkpt lat="47.058744" lon="11.042495">
        <ele>1765.599623</ele>
        <time>2026-08-21T13:28:04.971Z</time>
      </trkpt>
      <trkpt lat="47.058500" lon="11.042991">
        <ele>1769.827243</ele>
        <time>2026-08-21T13:28:25.219Z</time>
      </trkpt>
      <trkpt lat="47.058229" lon="11.043459">
        <ele>1774.159657</ele>
        <time>2026-08-21T13:28:42.706Z</time>
      </trkpt>
      <trkpt lat="47.057964" lon="11.043768">
        <ele>1778.188827</ele>
        <time>2026-08-21T13:28:55.986Z</time>
      </trkpt>
      <trkpt lat="47.057843" lon="11.043989">
        <ele>1780.488389</ele>
        <time>2026-08-21T13:29:03.677Z</time>
      </trkpt>
      <trkpt lat="47.057830" lon="11.044141">
        <ele>1781.730874</ele>
        <time>2026-08-21T13:29:07.658Z</time>
      </trkpt>
      <trkpt lat="47.057810" lon="11.044569">
        <ele>1785.210363</ele>
        <time>2026-08-21T13:29:19.534Z</time>
      </trkpt>
      <trkpt lat="47.057608" lon="11.045201">
        <ele>1790.872364</ele>
        <time>2026-08-21T13:29:41.458Z</time>
      </trkpt>
      <trkpt lat="47.057377" lon="11.045755">
        <ele>1796.665200</ele>
        <time>2026-08-21T13:30:06.357Z</time>
      </trkpt>
      <trkpt lat="47.057293" lon="11.046219">
        <ele>1802.317011</ele>
        <time>2026-08-21T13:30:27.456Z</time>
      </trkpt>
      <trkpt lat="47.057242" lon="11.046205">
        <ele>1803.213555</ele>
        <time>2026-08-21T13:30:30.892Z</time>
      </trkpt>
      <trkpt lat="47.057139" lon="11.046024">
        <ele>1805.989853</ele>
        <time>2026-08-21T13:30:41.567Z</time>
      </trkpt>
      <trkpt lat="47.056742" lon="11.045651">
        <ele>1814.134868</ele>
        <time>2026-08-21T13:31:13.249Z</time>
      </trkpt>
      <trkpt lat="47.056613" lon="11.045544">
        <ele>1816.695234</ele>
        <time>2026-08-21T13:31:23.252Z</time>
      </trkpt>
      <trkpt lat="47.056570" lon="11.045535">
        <ele>1817.445777</ele>
        <time>2026-08-21T13:31:26.216Z</time>
      </trkpt>
      <trkpt lat="47.056535" lon="11.045576">
        <ele>1818.219556</ele>
        <time>2026-08-21T13:31:29.329Z</time>
      </trkpt>
      <trkpt lat="47.056481" lon="11.045822">
        <ele>1821.262148</ele>
        <time>2026-08-21T13:31:42.193Z</time>
      </trkpt>
      <trkpt lat="47.056278" lon="11.046351">
        <ele>1827.462477</ele>
        <time>2026-08-21T13:32:07.437Z</time>
      </trkpt>
      <trkpt lat="47.056096" lon="11.046910">
        <ele>1831.818294</ele>
        <time>2026-08-21T13:32:24.186Z</time>
      </trkpt>
      <trkpt lat="47.055979" lon="11.047020">
        <ele>1833.252136</ele>
        <time>2026-08-21T13:32:28.965Z</time>
      </trkpt>
      <trkpt lat="47.055907" lon="11.047121">
        <ele>1834.279900</ele>
        <time>2026-08-21T13:32:32.809Z</time>
      </trkpt>
      <trkpt lat="47.055876" lon="11.047286">
        <ele>1835.483253</ele>
        <time>2026-08-21T13:32:36.845Z</time>
      </trkpt>
      <trkpt lat="47.055942" lon="11.047397">
        <ele>1836.519068</ele>
        <time>2026-08-21T13:32:40.188Z</time>
      </trkpt>
      <trkpt lat="47.056427" lon="11.047479">
        <ele>1841.557185</ele>
        <time>2026-08-21T13:32:58.978Z</time>
      </trkpt>
      <trkpt lat="47.056473" lon="11.047539">
        <ele>1842.192233</ele>
        <time>2026-08-21T13:33:01.669Z</time>
      </trkpt>
      <trkpt lat="47.056496" lon="11.047628">
        <ele>1842.861455</ele>
        <time>2026-08-21T13:33:03.894Z</time>
      </trkpt>
      <trkpt lat="47.056470" lon="11.047743">
        <ele>1843.713324</ele>
        <time>2026-08-21T13:33:07.536Z</time>
      </trkpt>
      <trkpt lat="47.056423" lon="11.047825">
        <ele>1844.466719</ele>
        <time>2026-08-21T13:33:10.084Z</time>
      </trkpt>
      <trkpt lat="47.056094" lon="11.048019">
        <ele>1848.530334</ele>
        <time>2026-08-21T13:33:22.858Z</time>
      </trkpt>
      <trkpt lat="47.055889" lon="11.047995">
        <ele>1850.897560</ele>
        <time>2026-08-21T13:33:31.387Z</time>
      </trkpt>
      <trkpt lat="47.055810" lon="11.048038">
        <ele>1851.867431</ele>
        <time>2026-08-21T13:33:35.096Z</time>
      </trkpt>
      <trkpt lat="47.055602" lon="11.048262">
        <ele>1854.837000</ele>
        <time>2026-08-21T13:33:47.660Z</time>
      </trkpt>
      <trkpt lat="47.055213" lon="11.048821">
        <ele>1861.103420</ele>
        <time>2026-08-21T13:34:16.409Z</time>
      </trkpt>
      <trkpt lat="47.054973" lon="11.049262">
        <ele>1865.473908</ele>
        <time>2026-08-21T13:34:34.957Z</time>
      </trkpt>
      <trkpt lat="47.054818" lon="11.049453">
        <ele>1867.172452</ele>
        <time>2026-08-21T13:34:43.924Z</time>
      </trkpt>
      <trkpt lat="47.054559" lon="11.049667">
        <ele>1869.666934</ele>
        <time>2026-08-21T13:34:56.273Z</time>
      </trkpt>
      <trkpt lat="47.054307" lon="11.050012">
        <ele>1872.559127</ele>
        <time>2026-08-21T13:35:09.712Z</time>
      </trkpt>
      <trkpt lat="47.053568" lon="11.050861">
        <ele>1880.426005</ele>
        <time>2026-08-21T13:35:40.633Z</time>
      </trkpt>
      <trkpt lat="47.053316" lon="11.050960">
        <ele>1881.355895</ele>
        <time>2026-08-21T13:35:48.099Z</time>
      </trkpt>
      <trkpt lat="47.053227" lon="11.051255">
        <ele>1882.139430</ele>
        <time>2026-08-21T13:35:54.298Z</time>
      </trkpt>
      <trkpt lat="47.053206" lon="11.051486">
        <ele>1882.705410</ele>
        <time>2026-08-21T13:35:58.645Z</time>
      </trkpt>
      <trkpt lat="47.053125" lon="11.051744">
        <ele>1883.395314</ele>
        <time>2026-08-21T13:36:03.933Z</time>
      </trkpt>
      <trkpt lat="47.053174" lon="11.052300">
        <ele>1884.756868</ele>
        <time>2026-08-21T13:36:13.749Z</time>
      </trkpt>
      <trkpt lat="47.053125" lon="11.052489">
        <ele>1885.247984</ele>
        <time>2026-08-21T13:36:16.930Z</time>
      </trkpt>
      <trkpt lat="47.053019" lon="11.052682">
        <ele>1885.850035</ele>
        <time>2026-08-21T13:36:20.726Z</time>
      </trkpt>
      <trkpt lat="47.052845" lon="11.052836">
        <ele>1886.574308</ele>
        <time>2026-08-21T13:36:25.523Z</time>
      </trkpt>
      <trkpt lat="47.052602" lon="11.052988">
        <ele>1887.436716</ele>
        <time>2026-08-21T13:36:32.306Z</time>
      </trkpt>
      <trkpt lat="47.052535" lon="11.053106">
        <ele>1887.766680</ele>
        <time>2026-08-21T13:36:34.974Z</time>
      </trkpt>
      <trkpt lat="47.052530" lon="11.053514">
        <ele>1888.643265</ele>
        <time>2026-08-21T13:36:41.775Z</time>
      </trkpt>
      <trkpt lat="47.052481" lon="11.053668">
        <ele>1889.008375</ele>
        <time>2026-08-21T13:36:44.588Z</time>
      </trkpt>
      <trkpt lat="47.052426" lon="11.053760">
        <ele>1889.271297</ele>
        <time>2026-08-21T13:36:46.783Z</time>
      </trkpt>
      <trkpt lat="47.052104" lon="11.054021">
        <ele>1890.431055</ele>
        <time>2026-08-21T13:36:56.025Z</time>
      </trkpt>
      <trkpt lat="47.051991" lon="11.054196">
        <ele>1890.948988</ele>
        <time>2026-08-21T13:37:00.154Z</time>
      </trkpt>
      <trkpt lat="47.052010" lon="11.054294">
        <ele>1891.167866</ele>
        <time>2026-08-21T13:37:01.768Z</time>
      </trkpt>
      <trkpt lat="47.052061" lon="11.054461">
        <ele>1891.560998</ele>
        <time>2026-08-21T13:37:05.763Z</time>
      </trkpt>
      <trkpt lat="47.052105" lon="11.054935">
        <ele>1892.718328</ele>
        <time>2026-08-21T13:37:14.928Z</time>
      </trkpt>
      <trkpt lat="47.052102" lon="11.054948">
        <ele>1892.791622</ele>
        <time>2026-08-21T13:37:15.207Z</time>
      </trkpt>
      <trkpt lat="47.052102" lon="11.054948">
        <ele>1892.791622</ele>
        <time>2026-08-21T13:37:15.258Z</time>
      </trkpt>
      <trkpt lat="47.052102" lon="11.054948">
        <ele>1892.791622</ele>
        <time>2026-08-21T13:37:15.258Z</time>
      </trkpt>
      <trkpt lat="47.052071" lon="11.054936">
        <ele>1893.042897</ele>
        <time>2026-08-21T13:37:16.631Z</time>
      </trkpt>
      <trkpt lat="47.052005" lon="11.055037">
        <ele>1893.790206</ele>
        <time>2026-08-21T13:37:20.713Z</time>
      </trkpt>
      <trkpt lat="47.051916" lon="11.055155">
        <ele>1894.730221</ele>
        <time>2026-08-21T13:37:25.852Z</time>
      </trkpt>
      <trkpt lat="47.051824" lon="11.055270">
        <ele>1895.677350</ele>
        <time>2026-08-21T13:37:31.029Z</time>
      </trkpt>
      <trkpt lat="47.051752" lon="11.055367">
        <ele>1896.443347</ele>
        <time>2026-08-21T13:37:35.215Z</time>
      </trkpt>
      <trkpt lat="47.051674" lon="11.055495">
        <ele>1897.360374</ele>
        <time>2026-08-21T13:37:40.225Z</time>
      </trkpt>
      <trkpt lat="47.051621" lon="11.055628">
        <ele>1898.183160</ele>
        <time>2026-08-21T13:37:44.724Z</time>
      </trkpt>
      <trkpt lat="47.051592" lon="11.055773">
        <ele>1898.990140</ele>
        <time>2026-08-21T13:37:49.139Z</time>
      </trkpt>
      <trkpt lat="47.051617" lon="11.055910">
        <ele>1899.747515</ele>
        <time>2026-08-21T13:37:53.282Z</time>
      </trkpt>
      <trkpt lat="47.051658" lon="11.056041">
        <ele>1900.517339</ele>
        <time>2026-08-21T13:37:57.497Z</time>
      </trkpt>
      <trkpt lat="47.051665" lon="11.056200">
        <ele>1901.368180</ele>
        <time>2026-08-21T13:38:02.157Z</time>
      </trkpt>
      <trkpt lat="47.051633" lon="11.056333">
        <ele>1902.121391</ele>
        <time>2026-08-21T13:38:06.280Z</time>
      </trkpt>
      <trkpt lat="47.051515" lon="11.056786">
        <ele>1904.711207</ele>
        <time>2026-08-21T13:38:20.462Z</time>
      </trkpt>
      <trkpt lat="47.051523" lon="11.056790">
        <ele>1904.777446</ele>
        <time>2026-08-21T13:38:20.818Z</time>
      </trkpt>
      <trkpt lat="47.051353" lon="11.057440">
        <ele>1909.504810</ele>
        <time>2026-08-21T13:38:40.784Z</time>
      </trkpt>
      <trkpt lat="47.051132" lon="11.058190">
        <ele>1916.190150</ele>
        <time>2026-08-21T13:39:05.989Z</time>
      </trkpt>
      <trkpt lat="47.051035" lon="11.058497">
        <ele>1918.958788</ele>
        <time>2026-08-21T13:39:16.941Z</time>
      </trkpt>
      <trkpt lat="47.050787" lon="11.058839">
        <ele>1923.045021</ele>
        <time>2026-08-21T13:39:33.563Z</time>
      </trkpt>
      <trkpt lat="47.050664" lon="11.059283">
        <ele>1926.966395</ele>
        <time>2026-08-21T13:39:49.813Z</time>
      </trkpt>
      <trkpt lat="47.050401" lon="11.059697">
        <ele>1932.068345</ele>
        <time>2026-08-21T13:40:09.430Z</time>
      </trkpt>
      <trkpt lat="47.050265" lon="11.060050">
        <ele>1935.845578</ele>
        <time>2026-08-21T13:40:23.594Z</time>
      </trkpt>
      <trkpt lat="47.050025" lon="11.060948">
        <ele>1944.830428</ele>
        <time>2026-08-21T13:40:57.234Z</time>
      </trkpt>
      <trkpt lat="47.049994" lon="11.061429">
        <ele>1949.330700</ele>
        <time>2026-08-21T13:41:14.034Z</time>
      </trkpt>
      <trkpt lat="47.049897" lon="11.061895">
        <ele>1954.022170</ele>
        <time>2026-08-21T13:41:31.029Z</time>
      </trkpt>
      <trkpt lat="47.049942" lon="11.062185">
        <ele>1957.182936</ele>
        <time>2026-08-21T13:41:41.619Z</time>
      </trkpt>
      <trkpt lat="47.049881" lon="11.062986">
        <ele>1965.748241</ele>
        <time>2026-08-21T13:42:12.359Z</time>
      </trkpt>
      <trkpt lat="47.049884" lon="11.063376">
        <ele>1969.893073</ele>
        <time>2026-08-21T13:42:28.148Z</time>
      </trkpt>
      <trkpt lat="47.049835" lon="11.063742">
        <ele>1973.856964</ele>
        <time>2026-08-21T13:42:43.705Z</time>
      </trkpt>
      <trkpt lat="47.049858" lon="11.063973">
        <ele>1976.337897</ele>
        <time>2026-08-21T13:42:53.492Z</time>
      </trkpt>
      <trkpt lat="47.049847" lon="11.064128">
        <ele>1977.994009</ele>
        <time>2026-08-21T13:42:59.958Z</time>
      </trkpt>
      <trkpt lat="47.049711" lon="11.064423">
        <ele>1981.745374</ele>
        <time>2026-08-21T13:43:14.288Z</time>
      </trkpt>
      <trkpt lat="47.049642" lon="11.064650">
        <ele>1984.292029</ele>
        <time>2026-08-21T13:43:24.017Z</time>
      </trkpt>
      <trkpt lat="47.049453" lon="11.065027">
        <ele>1989.087433</ele>
        <time>2026-08-21T13:43:41.785Z</time>
      </trkpt>
      <trkpt lat="47.049303" lon="11.065277">
        <ele>1992.500346</ele>
        <time>2026-08-21T13:43:53.859Z</time>
      </trkpt>
      <trkpt lat="47.049151" lon="11.065457">
        <ele>1995.437171</ele>
        <time>2026-08-21T13:44:03.894Z</time>
      </trkpt>
      <trkpt lat="47.049017" lon="11.065559">
        <ele>1997.706978</ele>
        <time>2026-08-21T13:44:11.529Z</time>
      </trkpt>
      <trkpt lat="47.048946" lon="11.065669">
        <ele>1999.259378</ele>
        <time>2026-08-21T13:44:16.806Z</time>
      </trkpt>
      <trkpt lat="47.048882" lon="11.066030">
        <ele>2003.081190</ele>
        <time>2026-08-21T13:44:29.954Z</time>
      </trkpt>
      <trkpt lat="47.048722" lon="11.066299">
        <ele>2006.739629</ele>
        <time>2026-08-21T13:44:42.840Z</time>
      </trkpt>
      <trkpt lat="47.048694" lon="11.066501">
        <ele>2009.146512</ele>
        <time>2026-08-21T13:44:50.604Z</time>
      </trkpt>
      <trkpt lat="47.048704" lon="11.066729">
        <ele>2012.200152</ele>
        <time>2026-08-21T13:44:59.638Z</time>
      </trkpt>
      <trkpt lat="47.048673" lon="11.067045">
        <ele>2016.467201</ele>
        <time>2026-08-21T13:45:13.272Z</time>
      </trkpt>
      <trkpt lat="47.048679" lon="11.067784">
        <ele>2026.345010</ele>
        <time>2026-08-21T13:45:48.878Z</time>
      </trkpt>
      <trkpt lat="47.048733" lon="11.068067">
        <ele>2030.272961</ele>
        <time>2026-08-21T13:46:04.161Z</time>
      </trkpt>
      <trkpt lat="47.048860" lon="11.068323">
        <ele>2034.505333</ele>
        <time>2026-08-21T13:46:20.643Z</time>
      </trkpt>
      <trkpt lat="47.048961" lon="11.068669">
        <ele>2039.536285</ele>
        <time>2026-08-21T13:46:40.189Z</time>
      </trkpt>
      <trkpt lat="47.048946" lon="11.068939">
        <ele>2043.156928</ele>
        <time>2026-08-21T13:46:53.952Z</time>
      </trkpt>
      <trkpt lat="47.048830" lon="11.069595">
        <ele>2050.065943</ele>
        <time>2026-08-21T13:47:25.900Z</time>
      </trkpt>
      <trkpt lat="47.048837" lon="11.069764">
        <ele>2051.791521</ele>
        <time>2026-08-21T13:47:33.241Z</time>
      </trkpt>
      <trkpt lat="47.048941" lon="11.070170">
        <ele>2056.212095</ele>
        <time>2026-08-21T13:47:50.782Z</time>
      </trkpt>
      <trkpt lat="47.048963" lon="11.070358">
        <ele>2058.156184</ele>
        <time>2026-08-21T13:47:57.880Z</time>
      </trkpt>
      <trkpt lat="47.048947" lon="11.070731">
        <ele>2061.965207</ele>
        <time>2026-08-21T13:48:10.690Z</time>
      </trkpt>
      <trkpt lat="47.048669" lon="11.071424">
        <ele>2070.099335</ele>
        <time>2026-08-21T13:48:34.210Z</time>
      </trkpt>
      <trkpt lat="47.048583" lon="11.072133">
        <ele>2072.577989</ele>
        <time>2026-08-21T13:48:50.908Z</time>
      </trkpt>
      <trkpt lat="47.048465" lon="11.072316">
        <ele>2073.445177</ele>
        <time>2026-08-21T13:48:56.137Z</time>
      </trkpt>
      <trkpt lat="47.048285" lon="11.072469">
        <ele>2074.495910</ele>
        <time>2026-08-21T13:49:02.151Z</time>
      </trkpt>
      <trkpt lat="47.048122" lon="11.072664">
        <ele>2075.558176</ele>
        <time>2026-08-21T13:49:07.905Z</time>
      </trkpt>
      <trkpt lat="47.047993" lon="11.072922">
        <ele>2076.659620</ele>
        <time>2026-08-21T13:49:13.547Z</time>
      </trkpt>
      <trkpt lat="47.047896" lon="11.073197">
        <ele>2077.725451</ele>
        <time>2026-08-21T13:49:18.827Z</time>
      </trkpt>
      <trkpt lat="47.047772" lon="11.073395">
        <ele>2078.651075</ele>
        <time>2026-08-21T13:49:24.568Z</time>
      </trkpt>
      <trkpt lat="47.047577" lon="11.073479">
        <ele>2079.765603</ele>
        <time>2026-08-21T13:49:30.874Z</time>
      </trkpt>
      <trkpt lat="47.047113" lon="11.073540">
        <ele>2082.513611</ele>
        <time>2026-08-21T13:49:45.430Z</time>
      </trkpt>
      <trkpt lat="47.046962" lon="11.073605">
        <ele>2083.441857</ele>
        <time>2026-08-21T13:49:50.403Z</time>
      </trkpt>
      <trkpt lat="47.046500" lon="11.073918">
        <ele>2086.443487</ele>
        <time>2026-08-21T13:50:09.029Z</time>
      </trkpt>
      <trkpt lat="47.045866" lon="11.074027">
        <ele>2090.693347</ele>
        <time>2026-08-21T13:50:38.662Z</time>
      </trkpt>
      <trkpt lat="47.045834" lon="11.073911">
        <ele>2091.743117</ele>
        <time>2026-08-21T13:50:43.185Z</time>
      </trkpt>
      <trkpt lat="47.045800" lon="11.073807">
        <ele>2092.710720</ele>
        <time>2026-08-21T13:50:47.317Z</time>
      </trkpt>
      <trkpt lat="47.045765" lon="11.073721">
        <ele>2093.550996</ele>
        <time>2026-08-21T13:50:51.034Z</time>
      </trkpt>
      <trkpt lat="47.045697" lon="11.073657">
        <ele>2094.545459</ele>
        <time>2026-08-21T13:50:55.303Z</time>
      </trkpt>
      <trkpt lat="47.045476" lon="11.073564">
        <ele>2097.375678</ele>
        <time>2026-08-21T13:51:08.051Z</time>
      </trkpt>
      <trkpt lat="47.045098" lon="11.073600">
        <ele>2102.038763</ele>
        <time>2026-08-21T13:51:29.442Z</time>
      </trkpt>
      <trkpt lat="47.044931" lon="11.073650">
        <ele>2104.136934</ele>
        <time>2026-08-21T13:51:39.490Z</time>
      </trkpt>
      <trkpt lat="47.044704" lon="11.073643">
        <ele>2106.931991</ele>
        <time>2026-08-21T13:51:52.651Z</time>
      </trkpt>
      <trkpt lat="47.044627" lon="11.073685">
        <ele>2107.943244</ele>
        <time>2026-08-21T13:51:57.096Z</time>
      </trkpt>
      <trkpt lat="47.044569" lon="11.073768">
        <ele>2108.940521</ele>
        <time>2026-08-21T13:52:01.430Z</time>
      </trkpt>
      <trkpt lat="47.044460" lon="11.074043">
        <ele>2111.609254</ele>
        <time>2026-08-21T13:52:13.170Z</time>
      </trkpt>
      <trkpt lat="47.044421" lon="11.074300">
        <ele>2112.954779</ele>
        <time>2026-08-21T13:52:22.749Z</time>
      </trkpt>
      <trkpt lat="47.044378" lon="11.074425">
        <ele>2113.599366</ele>
        <time>2026-08-21T13:52:27.745Z</time>
      </trkpt>
      <trkpt lat="47.043923" lon="11.074823">
        <ele>2117.177718</ele>
        <time>2026-08-21T13:52:51.795Z</time>
      </trkpt>
      <trkpt lat="47.043774" lon="11.074877">
        <ele>2118.214521</ele>
        <time>2026-08-21T13:52:57.698Z</time>
      </trkpt>
      <trkpt lat="47.043628" lon="11.075019">
        <ele>2119.397774</ele>
        <time>2026-08-21T13:53:03.867Z</time>
      </trkpt>
      <trkpt lat="47.043436" lon="11.075152">
        <ele>2120.832066</ele>
        <time>2026-08-21T13:53:11.286Z</time>
      </trkpt>
      <trkpt lat="47.043216" lon="11.075177">
        <ele>2122.322714</ele>
        <time>2026-08-21T13:53:18.464Z</time>
      </trkpt>
      <trkpt lat="47.043021" lon="11.075104">
        <ele>2123.682217</ele>
        <time>2026-08-21T13:53:24.840Z</time>
      </trkpt>
      <trkpt lat="47.042674" lon="11.075145">
        <ele>2124.093792</ele>
        <time>2026-08-21T13:53:35.707Z</time>
      </trkpt>
      <trkpt lat="47.042628" lon="11.075125">
        <ele>2124.100032</ele>
        <time>2026-08-21T13:53:37.077Z</time>
      </trkpt>
      <trkpt lat="47.042495" lon="11.074958">
        <ele>2124.122798</ele>
        <time>2026-08-21T13:53:42.126Z</time>
      </trkpt>
      <trkpt lat="47.042456" lon="11.074880">
        <ele>2124.131373</ele>
        <time>2026-08-21T13:53:43.766Z</time>
      </trkpt>
      <trkpt lat="47.042456" lon="11.074880">
        <ele>2124.131373</ele>
        <time>2026-08-21T13:53:43.861Z</time>
      </trkpt>
      <trkpt lat="47.042456" lon="11.074880">
        <ele>2124.131373</ele>
        <time>2026-08-21T13:53:43.861Z</time>
      </trkpt>
      <trkpt lat="47.042454" lon="11.074870">
        <ele>2124.132296</ele>
        <time>2026-08-21T13:53:44.165Z</time>
      </trkpt>
      <trkpt lat="47.042397" lon="11.074761">
        <ele>2124.144474</ele>
        <time>2026-08-21T13:53:48.172Z</time>
      </trkpt>
      <trkpt lat="47.042358" lon="11.074640">
        <ele>2124.156337</ele>
        <time>2026-08-21T13:53:52.074Z</time>
      </trkpt>
      <trkpt lat="47.042324" lon="11.074516">
        <ele>2124.168184</ele>
        <time>2026-08-21T13:53:55.972Z</time>
      </trkpt>
      <trkpt lat="47.042259" lon="11.074398">
        <ele>2124.181632</ele>
        <time>2026-08-21T13:54:00.394Z</time>
      </trkpt>
      <trkpt lat="47.042182" lon="11.074316">
        <ele>2124.194006</ele>
        <time>2026-08-21T13:54:04.463Z</time>
      </trkpt>
      <trkpt lat="47.042152" lon="11.074166">
        <ele>2124.207861</ele>
        <time>2026-08-21T13:54:09.020Z</time>
      </trkpt>
      <trkpt lat="47.042172" lon="11.074300">
        <ele>2124.220019</ele>
        <time>2026-08-21T13:54:13.018Z</time>
      </trkpt>
      <trkpt lat="47.042253" lon="11.074401">
        <ele>2124.233844</ele>
        <time>2026-08-21T13:54:17.564Z</time>
      </trkpt>
      <trkpt lat="47.042301" lon="11.074456">
        <ele>2124.241765</ele>
        <time>2026-08-21T13:54:20.157Z</time>
      </trkpt>
      <trkpt lat="47.042382" lon="11.074733">
        <ele>2124.268480</ele>
        <time>2026-08-21T13:54:26.593Z</time>
      </trkpt>
      <trkpt lat="47.042456" lon="11.074880">
        <ele>2124.284679</ele>
        <time>2026-08-21T13:54:30.677Z</time>
      </trkpt>
      <trkpt lat="47.042495" lon="11.074958">
        <ele>2124.183475</ele>
        <time>2026-08-21T13:54:32.635Z</time>
      </trkpt>
      <trkpt lat="47.042628" lon="11.075125">
        <ele>2123.514697</ele>
        <time>2026-08-21T13:54:37.954Z</time>
      </trkpt>
      <trkpt lat="47.042674" lon="11.075145">
        <ele>2123.331396</ele>
        <time>2026-08-21T13:54:39.453Z</time>
      </trkpt>
      <trkpt lat="47.043021" lon="11.075104">
        <ele>2122.001342</ele>
        <time>2026-08-21T13:54:49.257Z</time>
      </trkpt>
      <trkpt lat="47.043216" lon="11.075177">
        <ele>2121.232455</ele>
        <time>2026-08-21T13:54:54.470Z</time>
      </trkpt>
      <trkpt lat="47.043436" lon="11.075152">
        <ele>2120.389397</ele>
        <time>2026-08-21T13:55:00.165Z</time>
      </trkpt>
      <trkpt lat="47.043628" lon="11.075019">
        <ele>2119.578213</ele>
        <time>2026-08-21T13:55:05.508Z</time>
      </trkpt>
      <trkpt lat="47.043774" lon="11.074877">
        <ele>2118.909007</ele>
        <time>2026-08-21T13:55:09.731Z</time>
      </trkpt>
      <trkpt lat="47.043923" lon="11.074823">
        <ele>2118.322627</ele>
        <time>2026-08-21T13:55:13.257Z</time>
      </trkpt>
      <trkpt lat="47.044378" lon="11.074425">
        <ele>2113.941874</ele>
        <time>2026-08-21T13:55:24.747Z</time>
      </trkpt>
      <trkpt lat="47.044421" lon="11.074300">
        <ele>2112.809331</ele>
        <time>2026-08-21T13:55:26.745Z</time>
      </trkpt>
      <trkpt lat="47.044460" lon="11.074043">
        <ele>2110.679755</ele>
        <time>2026-08-21T13:55:30.478Z</time>
      </trkpt>
      <trkpt lat="47.044569" lon="11.073768">
        <ele>2108.106611</ele>
        <time>2026-08-21T13:55:34.968Z</time>
      </trkpt>
      <trkpt lat="47.044627" lon="11.073685">
        <ele>2107.145054</ele>
        <time>2026-08-21T13:55:36.654Z</time>
      </trkpt>
      <trkpt lat="47.044704" lon="11.073643">
        <ele>2106.170023</ele>
        <time>2026-08-21T13:55:38.346Z</time>
      </trkpt>
      <trkpt lat="47.044931" lon="11.073650">
        <ele>2103.475080</ele>
        <time>2026-08-21T13:55:42.994Z</time>
      </trkpt>
      <trkpt lat="47.045098" lon="11.073600">
        <ele>2101.452061</ele>
        <time>2026-08-21T13:55:46.465Z</time>
      </trkpt>
      <trkpt lat="47.045476" lon="11.073564">
        <ele>2096.955999</ele>
        <time>2026-08-21T13:55:54.221Z</time>
      </trkpt>
      <trkpt lat="47.045697" lon="11.073657">
        <ele>2094.759397</ele>
        <time>2026-08-21T13:55:58.971Z</time>
      </trkpt>
      <trkpt lat="47.045765" lon="11.073721">
        <ele>2094.077651</ele>
        <time>2026-08-21T13:56:00.639Z</time>
      </trkpt>
      <trkpt lat="47.045800" lon="11.073807">
        <ele>2093.501605</ele>
        <time>2026-08-21T13:56:02.057Z</time>
      </trkpt>
      <trkpt lat="47.045834" lon="11.073911">
        <ele>2092.838272</ele>
        <time>2026-08-21T13:56:03.699Z</time>
      </trkpt>
      <trkpt lat="47.045866" lon="11.074027">
        <ele>2092.118610</ele>
        <time>2026-08-21T13:56:05.474Z</time>
      </trkpt>
      <trkpt lat="47.046500" lon="11.073918">
        <ele>2086.731539</ele>
        <time>2026-08-21T13:56:19.245Z</time>
      </trkpt>
      <trkpt lat="47.046962" lon="11.073605">
        <ele>2082.437202</ele>
        <time>2026-08-21T13:56:31.234Z</time>
      </trkpt>
      <trkpt lat="47.047113" lon="11.073540">
        <ele>2081.109189</ele>
        <time>2026-08-21T13:56:35.415Z</time>
      </trkpt>
      <trkpt lat="47.047577" lon="11.073479">
        <ele>2079.252178</ele>
        <time>2026-08-21T13:56:48.286Z</time>
      </trkpt>
      <trkpt lat="47.047772" lon="11.073395">
        <ele>2078.495583</ele>
        <time>2026-08-21T13:56:53.930Z</time>
      </trkpt>
      <trkpt lat="47.047896" lon="11.073197">
        <ele>2077.813384</ele>
        <time>2026-08-21T13:56:58.915Z</time>
      </trkpt>
      <trkpt lat="47.047993" lon="11.072922">
        <ele>2077.027852</ele>
        <time>2026-08-21T13:57:02.489Z</time>
      </trkpt>
      <trkpt lat="47.048122" lon="11.072664">
        <ele>2076.216071</ele>
        <time>2026-08-21T13:57:06.054Z</time>
      </trkpt>
      <trkpt lat="47.048285" lon="11.072469">
        <ele>2075.433166</ele>
        <time>2026-08-21T13:57:09.348Z</time>
      </trkpt>
      <trkpt lat="47.048465" lon="11.072316">
        <ele>2074.658761</ele>
        <time>2026-08-21T13:57:12.532Z</time>
      </trkpt>
      <trkpt lat="47.048583" lon="11.072133">
        <ele>2073.655482</ele>
        <time>2026-08-21T13:57:15.069Z</time>
      </trkpt>
      <trkpt lat="47.048669" lon="11.071424">
        <ele>2068.002794</ele>
        <time>2026-08-21T13:57:22.061Z</time>
      </trkpt>
      <trkpt lat="47.048947" lon="11.070731">
        <ele>2061.690489</ele>
        <time>2026-08-21T13:57:29.433Z</time>
      </trkpt>
      <trkpt lat="47.048963" lon="11.070358">
        <ele>2058.756901</ele>
        <time>2026-08-21T13:57:32.747Z</time>
      </trkpt>
      <trkpt lat="47.048941" lon="11.070170">
        <ele>2057.259626</ele>
        <time>2026-08-21T13:57:34.427Z</time>
      </trkpt>
      <trkpt lat="47.048837" lon="11.069764">
        <ele>2053.855042</ele>
        <time>2026-08-21T13:57:38.190Z</time>
      </trkpt>
      <trkpt lat="47.048830" lon="11.069595">
        <ele>2051.825622</ele>
        <time>2026-08-21T13:57:39.647Z</time>
      </trkpt>
      <trkpt lat="47.048946" lon="11.068939">
        <ele>2042.572786</ele>
        <time>2026-08-21T13:57:45.424Z</time>
      </trkpt>
      <trkpt lat="47.048961" lon="11.068669">
        <ele>2038.874338</ele>
        <time>2026-08-21T13:57:47.718Z</time>
      </trkpt>
      <trkpt lat="47.048860" lon="11.068323">
        <ele>2033.735273</ele>
        <time>2026-08-21T13:57:50.898Z</time>
      </trkpt>
      <trkpt lat="47.048733" lon="11.068067">
        <ele>2029.411950</ele>
        <time>2026-08-21T13:57:53.579Z</time>
      </trkpt>
      <trkpt lat="47.048679" lon="11.067784">
        <ele>2025.399589</ele>
        <time>2026-08-21T13:57:56.066Z</time>
      </trkpt>
      <trkpt lat="47.048673" lon="11.067045">
        <ele>2015.770491</ele>
        <time>2026-08-21T13:58:02.354Z</time>
      </trkpt>
      <trkpt lat="47.048704" lon="11.066729">
        <ele>2012.357494</ele>
        <time>2026-08-21T13:58:05.110Z</time>
      </trkpt>
      <trkpt lat="47.048694" lon="11.066501">
        <ele>2009.915040</ele>
        <time>2026-08-21T13:58:07.098Z</time>
      </trkpt>
      <trkpt lat="47.048722" lon="11.066299">
        <ele>2007.711350</ele>
        <time>2026-08-21T13:58:08.899Z</time>
      </trkpt>
      <trkpt lat="47.048882" lon="11.066030">
        <ele>2003.894107</ele>
        <time>2026-08-21T13:58:12.050Z</time>
      </trkpt>
      <trkpt lat="47.048946" lon="11.065669">
        <ele>1999.906400</ele>
        <time>2026-08-21T13:58:15.348Z</time>
      </trkpt>
      <trkpt lat="47.049017" lon="11.065559">
        <ele>1998.286613</ele>
        <time>2026-08-21T13:58:16.689Z</time>
      </trkpt>
      <trkpt lat="47.049151" lon="11.065457">
        <ele>1995.918280</ele>
        <time>2026-08-21T13:58:18.647Z</time>
      </trkpt>
      <trkpt lat="47.049303" lon="11.065277">
        <ele>1992.853975</ele>
        <time>2026-08-21T13:58:21.183Z</time>
      </trkpt>
      <trkpt lat="47.049453" lon="11.065027">
        <ele>1989.292916</ele>
        <time>2026-08-21T13:58:24.128Z</time>
      </trkpt>
      <trkpt lat="47.049642" lon="11.064650">
        <ele>1984.255104</ele>
        <time>2026-08-21T13:58:28.223Z</time>
      </trkpt>
      <trkpt lat="47.049711" lon="11.064423">
        <ele>1981.579425</ele>
        <time>2026-08-21T13:58:30.383Z</time>
      </trkpt>
      <trkpt lat="47.049847" lon="11.064128">
        <ele>1977.745303</ele>
        <time>2026-08-21T13:58:33.475Z</time>
      </trkpt>
      <trkpt lat="47.049858" lon="11.063973">
        <ele>1976.067778</ele>
        <time>2026-08-21T13:58:34.824Z</time>
      </trkpt>
      <trkpt lat="47.049835" lon="11.063742">
        <ele>1973.554768</ele>
        <time>2026-08-21T13:58:36.838Z</time>
      </trkpt>
      <trkpt lat="47.049884" lon="11.063376">
        <ele>1969.539626</ele>
        <time>2026-08-21T13:58:40.063Z</time>
      </trkpt>
      <trkpt lat="47.049881" lon="11.062986">
        <ele>1965.341202</ele>
        <time>2026-08-21T13:58:43.448Z</time>
      </trkpt>
      <trkpt lat="47.049942" lon="11.062185">
        <ele>1957.118583</ele>
        <time>2026-08-21T13:58:50.497Z</time>
      </trkpt>
      <trkpt lat="47.049897" lon="11.061895">
        <ele>1954.268168</ele>
        <time>2026-08-21T13:58:53.123Z</time>
      </trkpt>
      <trkpt lat="47.049994" lon="11.061429">
        <ele>1949.598442</ele>
        <time>2026-08-21T13:58:57.440Z</time>
      </trkpt>
      <trkpt lat="47.050025" lon="11.060948">
        <ele>1944.968147</ele>
        <time>2026-08-21T13:59:01.723Z</time>
      </trkpt>
      <trkpt lat="47.050265" lon="11.060050">
        <ele>1935.723704</ele>
        <time>2026-08-21T13:59:10.270Z</time>
      </trkpt>
      <trkpt lat="47.050401" lon="11.059697">
        <ele>1932.165056</ele>
        <time>2026-08-21T13:59:13.858Z</time>
      </trkpt>
      <trkpt lat="47.050664" lon="11.059283">
        <ele>1927.225885</ele>
        <time>2026-08-21T13:59:18.886Z</time>
      </trkpt>
      <trkpt lat="47.050787" lon="11.058839">
        <ele>1923.043563</ele>
        <time>2026-08-21T13:59:23.153Z</time>
      </trkpt>
      <trkpt lat="47.051035" lon="11.058497">
        <ele>1918.685410</ele>
        <time>2026-08-21T13:59:27.612Z</time>
      </trkpt>
      <trkpt lat="47.051132" lon="11.058190">
        <ele>1915.732534</ele>
        <time>2026-08-21T13:59:30.644Z</time>
      </trkpt>
      <trkpt lat="47.051353" lon="11.057440">
        <ele>1909.614075</ele>
        <time>2026-08-21T13:59:38.026Z</time>
      </trkpt>
      <trkpt lat="47.051523" lon="11.056790">
        <ele>1905.130135</ele>
        <time>2026-08-21T13:59:44.425Z</time>
      </trkpt>
      <trkpt lat="47.051662" lon="11.056257">
        <ele>1901.454667</ele>
        <time>2026-08-21T13:59:49.710Z</time>
      </trkpt>
      <trkpt lat="47.051662" lon="11.056257">
        <ele>1901.454667</ele>
        <time>2026-08-21T13:59:49.749Z</time>
      </trkpt>
      <trkpt lat="47.051662" lon="11.056257">
        <ele>1901.454667</ele>
        <time>2026-08-21T13:59:49.749Z</time>
      </trkpt>
      <trkpt lat="47.051667" lon="11.056260">
        <ele>1901.403610</ele>
        <time>2026-08-21T13:59:49.981Z</time>
      </trkpt>
      <trkpt lat="47.051683" lon="11.056122">
        <ele>1900.502091</ele>
        <time>2026-08-21T13:59:54.076Z</time>
      </trkpt>
      <trkpt lat="47.051664" lon="11.055985">
        <ele>1899.601696</ele>
        <time>2026-08-21T13:59:58.162Z</time>
      </trkpt>
      <trkpt lat="47.051627" lon="11.055849">
        <ele>1898.658590</ele>
        <time>2026-08-21T14:00:02.444Z</time>
      </trkpt>
      <trkpt lat="47.051633" lon="11.055693">
        <ele>1897.652323</ele>
        <time>2026-08-21T14:00:07.008Z</time>
      </trkpt>
      <trkpt lat="47.051681" lon="11.055536">
        <ele>1896.544088</ele>
        <time>2026-08-21T14:00:12.033Z</time>
      </trkpt>
      <trkpt lat="47.051769" lon="11.055374">
        <ele>1895.354573</ele>
        <time>2026-08-21T14:00:18.080Z</time>
      </trkpt>
      <trkpt lat="47.051882" lon="11.055227">
        <ele>1894.741231</ele>
        <time>2026-08-21T14:00:24.546Z</time>
      </trkpt>
      <trkpt lat="47.051993" lon="11.055324">
        <ele>1894.216490</ele>
        <time>2026-08-21T14:00:30.065Z</time>
      </trkpt>
      <trkpt lat="47.052066" lon="11.055143">
        <ele>1893.634384</ele>
        <time>2026-08-21T14:00:32.211Z</time>
      </trkpt>
      <trkpt lat="47.052102" lon="11.054948">
        <ele>1893.075256</ele>
        <time>2026-08-21T14:00:34.245Z</time>
      </trkpt>
      <trkpt lat="47.052105" lon="11.054935">
        <ele>1893.037270</ele>
        <time>2026-08-21T14:00:34.384Z</time>
      </trkpt>
      <trkpt lat="47.052061" lon="11.054461">
        <ele>1891.713344</ele>
        <time>2026-08-21T14:00:39.467Z</time>
      </trkpt>
      <trkpt lat="47.052010" lon="11.054294">
        <ele>1891.206864</ele>
        <time>2026-08-21T14:00:42.834Z</time>
      </trkpt>
      <trkpt lat="47.051991" lon="11.054196">
        <ele>1890.924879</ele>
        <time>2026-08-21T14:00:44.049Z</time>
      </trkpt>
      <trkpt lat="47.052104" lon="11.054021">
        <ele>1890.257615</ele>
        <time>2026-08-21T14:00:46.840Z</time>
      </trkpt>
      <trkpt lat="47.052426" lon="11.053760">
        <ele>1888.763474</ele>
        <time>2026-08-21T14:00:53.222Z</time>
      </trkpt>
      <trkpt lat="47.052481" lon="11.053668">
        <ele>1888.424746</ele>
        <time>2026-08-21T14:00:54.709Z</time>
      </trkpt>
      <trkpt lat="47.052530" lon="11.053514">
        <ele>1888.026129</ele>
        <time>2026-08-21T14:00:56.726Z</time>
      </trkpt>
      <trkpt lat="47.052535" lon="11.053106">
        <ele>1887.295330</ele>
        <time>2026-08-21T14:01:01.539Z</time>
      </trkpt>
      <trkpt lat="47.052602" lon="11.052988">
        <ele>1887.020243</ele>
        <time>2026-08-21T14:01:03.275Z</time>
      </trkpt>
      <trkpt lat="47.052845" lon="11.052836">
        <ele>1886.325925</ele>
        <time>2026-08-21T14:01:07.626Z</time>
      </trkpt>
      <trkpt lat="47.053019" lon="11.052682">
        <ele>1885.791844</ele>
        <time>2026-08-21T14:01:11.269Z</time>
      </trkpt>
      <trkpt lat="47.053125" lon="11.052489">
        <ele>1885.347889</ele>
        <time>2026-08-21T14:01:14.518Z</time>
      </trkpt>
      <trkpt lat="47.053174" lon="11.052300">
        <ele>1884.985738</ele>
        <time>2026-08-21T14:01:17.114Z</time>
      </trkpt>
      <trkpt lat="47.053125" lon="11.051744">
        <ele>1883.981723</ele>
        <time>2026-08-21T14:01:23.386Z</time>
      </trkpt>
      <trkpt lat="47.053206" lon="11.051486">
        <ele>1883.472985</ele>
        <time>2026-08-21T14:01:26.440Z</time>
      </trkpt>
      <trkpt lat="47.053227" lon="11.051255">
        <ele>1882.512843</ele>
        <time>2026-08-21T14:01:28.923Z</time>
      </trkpt>
      <trkpt lat="47.053316" lon="11.050960">
        <ele>1881.097251</ele>
        <time>2026-08-21T14:01:32.310Z</time>
      </trkpt>
      <trkpt lat="47.053568" lon="11.050861">
        <ele>1879.417244</ele>
        <time>2026-08-21T14:01:36.288Z</time>
      </trkpt>
      <trkpt lat="47.054307" lon="11.050012">
        <ele>1873.373571</ele>
        <time>2026-08-21T14:01:49.817Z</time>
      </trkpt>
      <trkpt lat="47.054559" lon="11.049667">
        <ele>1870.610789</ele>
        <time>2026-08-21T14:01:54.553Z</time>
      </trkpt>
      <trkpt lat="47.054818" lon="11.049453">
        <ele>1867.194114</ele>
        <time>2026-08-21T14:01:58.565Z</time>
      </trkpt>
      <trkpt lat="47.054973" lon="11.049262">
        <ele>1864.867629</ele>
        <time>2026-08-21T14:02:01.275Z</time>
      </trkpt>
      <trkpt lat="47.055213" lon="11.048821">
        <ele>1860.447135</ele>
        <time>2026-08-21T14:02:06.321Z</time>
      </trkpt>
      <trkpt lat="47.055602" lon="11.048262">
        <ele>1854.189067</ele>
        <time>2026-08-21T14:02:13.367Z</time>
      </trkpt>
      <trkpt lat="47.055810" lon="11.048038">
        <ele>1851.223454</ele>
        <time>2026-08-21T14:02:16.758Z</time>
      </trkpt>
      <trkpt lat="47.055889" lon="11.047995">
        <ele>1850.387852</ele>
        <time>2026-08-21T14:02:17.877Z</time>
      </trkpt>
      <trkpt lat="47.056094" lon="11.048019">
        <ele>1848.367187</ele>
        <time>2026-08-21T14:02:20.668Z</time>
      </trkpt>
      <trkpt lat="47.056169" lon="11.047975">
        <ele>1847.573578</ele>
        <time>2026-08-21T14:02:21.788Z</time>
      </trkpt>
      <trkpt lat="47.056423" lon="11.047825">
        <ele>1844.883433</ele>
        <time>2026-08-21T14:02:25.639Z</time>
      </trkpt>
      <trkpt lat="47.056470" lon="11.047743">
        <ele>1844.166098</ele>
        <time>2026-08-21T14:02:26.673Z</time>
      </trkpt>
      <trkpt lat="47.056496" lon="11.047628">
        <ele>1843.355003</ele>
        <time>2026-08-21T14:02:27.777Z</time>
      </trkpt>
      <trkpt lat="47.056473" lon="11.047539">
        <ele>1842.717813</ele>
        <time>2026-08-21T14:02:28.694Z</time>
      </trkpt>
      <trkpt lat="47.056427" lon="11.047479">
        <ele>1842.113161</ele>
        <time>2026-08-21T14:02:29.523Z</time>
      </trkpt>
      <trkpt lat="47.055942" lon="11.047397">
        <ele>1837.316189</ele>
        <time>2026-08-21T14:02:36.250Z</time>
      </trkpt>
      <trkpt lat="47.055876" lon="11.047286">
        <ele>1836.329952</ele>
        <time>2026-08-21T14:02:37.691Z</time>
      </trkpt>
      <trkpt lat="47.055907" lon="11.047121">
        <ele>1835.184196</ele>
        <time>2026-08-21T14:02:39.339Z</time>
      </trkpt>
      <trkpt lat="47.055979" lon="11.047020">
        <ele>1834.205625</ele>
        <time>2026-08-21T14:02:40.711Z</time>
      </trkpt>
      <trkpt lat="47.056096" lon="11.046910">
        <ele>1832.372457</ele>
        <time>2026-08-21T14:02:42.672Z</time>
      </trkpt>
      <trkpt lat="47.056278" lon="11.046351">
        <ele>1825.271002</ele>
        <time>2026-08-21T14:02:48.269Z</time>
      </trkpt>
      <trkpt lat="47.056509" lon="11.046002">
        <ele>1819.693642</ele>
        <time>2026-08-21T14:02:54.803Z</time>
      </trkpt>
      <trkpt lat="47.056742" lon="11.045651">
        <ele>1814.076400</ele>
        <time>2026-08-21T14:03:01.258Z</time>
      </trkpt>
      <trkpt lat="47.057139" lon="11.046024">
        <ele>1806.145954</ele>
        <time>2026-08-21T14:03:07.151Z</time>
      </trkpt>
      <trkpt lat="47.057242" lon="11.046205">
        <ele>1803.442793</ele>
        <time>2026-08-21T14:03:09.166Z</time>
      </trkpt>
      <trkpt lat="47.057293" lon="11.046219">
        <ele>1802.688527</ele>
        <time>2026-08-21T14:03:09.811Z</time>
      </trkpt>
      <trkpt lat="47.057377" lon="11.045755">
        <ele>1798.165692</ele>
        <time>2026-08-21T14:03:13.922Z</time>
      </trkpt>
      <trkpt lat="47.057608" lon="11.045201">
        <ele>1792.046787</ele>
        <time>2026-08-21T14:03:19.590Z</time>
      </trkpt>
      <trkpt lat="47.057810" lon="11.044569">
        <ele>1785.470360</ele>
        <time>2026-08-21T14:03:25.894Z</time>
      </trkpt>
      <trkpt lat="47.057830" lon="11.044141">
        <ele>1781.428927</ele>
        <time>2026-08-21T14:03:29.866Z</time>
      </trkpt>
      <trkpt lat="47.057843" lon="11.043989">
        <ele>1779.985777</ele>
        <time>2026-08-21T14:03:31.305Z</time>
      </trkpt>
      <trkpt lat="47.057964" lon="11.043768">
        <ele>1777.566964</ele>
        <time>2026-08-21T14:03:33.953Z</time>
      </trkpt>
      <trkpt lat="47.058229" lon="11.043459">
        <ele>1774.011232</ele>
        <time>2026-08-21T14:03:38.594Z</time>
      </trkpt>
      <trkpt lat="47.058500" lon="11.042991">
        <ele>1769.614955</ele>
        <time>2026-08-21T14:03:44.235Z</time>
      </trkpt>
      <trkpt lat="47.058744" lon="11.042495">
        <ele>1765.236023</ele>
        <time>2026-08-21T14:03:49.714Z</time>
      </trkpt>
      <trkpt lat="47.058942" lon="11.041991">
        <ele>1761.071838</ele>
        <time>2026-08-21T14:03:54.996Z</time>
      </trkpt>
      <trkpt lat="47.059035" lon="11.041672">
        <ele>1758.926927</ele>
        <time>2026-08-21T14:03:58.206Z</time>
      </trkpt>
      <trkpt lat="47.059089" lon="11.041172">
        <ele>1756.699411</ele>
        <time>2026-08-21T14:04:02.950Z</time>
      </trkpt>
      <trkpt lat="47.059087" lon="11.040963">
        <ele>1755.779703</ele>
        <time>2026-08-21T14:04:04.933Z</time>
      </trkpt>
      <trkpt lat="47.059191" lon="11.039985">
        <ele>1751.424318</ele>
        <time>2026-08-21T14:04:14.789Z</time>
      </trkpt>
      <trkpt lat="47.059391" lon="11.039610">
        <ele>1749.328782</ele>
        <time>2026-08-21T14:04:20.196Z</time>
      </trkpt>
      <trkpt lat="47.059473" lon="11.039158">
        <ele>1747.120282</ele>
        <time>2026-08-21T14:04:25.521Z</time>
      </trkpt>
      <trkpt lat="47.059586" lon="11.038638">
        <ele>1744.095366</ele>
        <time>2026-08-21T14:04:31.418Z</time>
      </trkpt>
      <trkpt lat="47.059582" lon="11.038260">
        <ele>1742.000234</ele>
        <time>2026-08-21T14:04:35.232Z</time>
      </trkpt>
      <trkpt lat="47.059767" lon="11.037463">
        <ele>1737.333896</ele>
        <time>2026-08-21T14:04:43.115Z</time>
      </trkpt>
      <trkpt lat="47.059993" lon="11.037028">
        <ele>1734.302055</ele>
        <time>2026-08-21T14:04:48.115Z</time>
      </trkpt>
      <trkpt lat="47.060238" lon="11.036759">
        <ele>1730.642043</ele>
        <time>2026-08-21T14:04:52.115Z</time>
      </trkpt>
      <trkpt lat="47.060296" lon="11.036521">
        <ele>1728.073290</ele>
        <time>2026-08-21T14:04:54.351Z</time>
      </trkpt>
      <trkpt lat="47.060525" lon="11.035998">
        <ele>1721.755177</ele>
        <time>2026-08-21T14:05:02.896Z</time>
      </trkpt>
      <trkpt lat="47.060707" lon="11.035709">
        <ele>1717.755571</ele>
        <time>2026-08-21T14:05:08.264Z</time>
      </trkpt>
      <trkpt lat="47.060861" lon="11.035560">
        <ele>1715.004120</ele>
        <time>2026-08-21T14:05:11.984Z</time>
      </trkpt>
      <trkpt lat="47.060892" lon="11.035316">
        <ele>1712.481768</ele>
        <time>2026-08-21T14:05:15.421Z</time>
      </trkpt>
      <trkpt lat="47.060958" lon="11.035303">
        <ele>1711.488373</ele>
        <time>2026-08-21T14:05:16.768Z</time>
      </trkpt>
      <trkpt lat="47.060987" lon="11.035389">
        <ele>1710.513205</ele>
        <time>2026-08-21T14:05:18.093Z</time>
      </trkpt>
      <trkpt lat="47.060986" lon="11.035472">
        <ele>1709.669606</ele>
        <time>2026-08-21T14:05:19.224Z</time>
      </trkpt>
      <trkpt lat="47.060966" lon="11.035545">
        <ele>1708.870012</ele>
        <time>2026-08-21T14:05:20.296Z</time>
      </trkpt>
      <trkpt lat="47.060791" lon="11.035836">
        <ele>1704.755303</ele>
        <time>2026-08-21T14:05:25.528Z</time>
      </trkpt>
      <trkpt lat="47.060780" lon="11.036035">
        <ele>1702.490161</ele>
        <time>2026-08-21T14:05:28.226Z</time>
      </trkpt>
      <trkpt lat="47.060816" lon="11.036402">
        <ele>1698.283477</ele>
        <time>2026-08-21T14:05:33.276Z</time>
      </trkpt>
      <trkpt lat="47.060950" lon="11.036829">
        <ele>1692.949705</ele>
        <time>2026-08-21T14:05:39.669Z</time>
      </trkpt>
      <trkpt lat="47.060966" lon="11.037082">
        <ele>1690.067001</ele>
        <time>2026-08-21T14:05:43.100Z</time>
      </trkpt>
      <trkpt lat="47.061051" lon="11.037234">
        <ele>1687.835895</ele>
        <time>2026-08-21T14:05:45.761Z</time>
      </trkpt>
      <trkpt lat="47.061078" lon="11.037364">
        <ele>1686.293984</ele>
        <time>2026-08-21T14:05:47.590Z</time>
      </trkpt>
      <trkpt lat="47.061072" lon="11.037689">
        <ele>1682.605415</ele>
        <time>2026-08-21T14:05:51.984Z</time>
      </trkpt>
      <trkpt lat="47.061118" lon="11.037755">
        <ele>1681.534156</ele>
        <time>2026-08-21T14:05:53.273Z</time>
      </trkpt>
      <trkpt lat="47.061132" lon="11.037777">
        <ele>1681.192598</ele>
        <time>2026-08-21T14:05:53.662Z</time>
      </trkpt>
      <trkpt lat="47.061223" lon="11.037890">
        <ele>1679.207541</ele>
        <time>2026-08-21T14:05:56.043Z</time>
      </trkpt>
      <trkpt lat="47.061313" lon="11.037896">
        <ele>1677.707101</ele>
        <time>2026-08-21T14:05:57.822Z</time>
      </trkpt>
      <trkpt lat="47.061373" lon="11.037803">
        <ele>1676.292445</ele>
        <time>2026-08-21T14:05:59.567Z</time>
      </trkpt>
      <trkpt lat="47.061518" lon="11.037361">
        <ele>1671.940243</ele>
        <time>2026-08-21T14:06:06.304Z</time>
      </trkpt>
      <trkpt lat="47.061523" lon="11.037347">
        <ele>1671.800008</ele>
        <time>2026-08-21T14:06:06.521Z</time>
      </trkpt>
      <trkpt lat="47.061945" lon="11.036420">
        <ele>1661.908875</ele>
        <time>2026-08-21T14:06:22.086Z</time>
      </trkpt>
      <trkpt lat="47.062024" lon="11.036333">
        <ele>1660.622730</ele>
        <time>2026-08-21T14:06:24.142Z</time>
      </trkpt>
      <trkpt lat="47.062291" lon="11.036147">
        <ele>1656.773912</ele>
        <time>2026-08-21T14:06:30.356Z</time>
      </trkpt>
      <trkpt lat="47.062386" lon="11.036047">
        <ele>1655.251529</ele>
        <time>2026-08-21T14:06:32.852Z</time>
      </trkpt>
      <trkpt lat="47.062459" lon="11.035929">
        <ele>1653.837447</ele>
        <time>2026-08-21T14:06:35.167Z</time>
      </trkpt>
      <trkpt lat="47.062546" lon="11.035661">
        <ele>1651.987277</ele>
        <time>2026-08-21T14:06:39.518Z</time>
      </trkpt>
      <trkpt lat="47.062773" lon="11.035287">
        <ele>1649.474526</ele>
        <time>2026-08-21T14:06:46.957Z</time>
      </trkpt>
      <trkpt lat="47.063000" lon="11.034806">
        <ele>1646.539243</ele>
        <time>2026-08-21T14:06:55.891Z</time>
      </trkpt>
      <trkpt lat="47.063459" lon="11.034245">
        <ele>1642.141106</ele>
        <time>2026-08-21T14:07:09.822Z</time>
      </trkpt>
      <trkpt lat="47.063665" lon="11.034159">
        <ele>1640.564001</ele>
        <time>2026-08-21T14:07:12.633Z</time>
      </trkpt>
      <trkpt lat="47.063811" lon="11.034040">
        <ele>1639.435901</ele>
        <time>2026-08-21T14:07:14.822Z</time>
      </trkpt>
      <trkpt lat="47.064439" lon="11.033368">
        <ele>1635.073444</ele>
        <time>2026-08-21T14:07:25.160Z</time>
      </trkpt>
      <trkpt lat="47.064929" lon="11.032728">
        <ele>1631.391712</ele>
        <time>2026-08-21T14:07:33.822Z</time>
      </trkpt>
      <trkpt lat="47.065332" lon="11.032297">
        <ele>1628.295246</ele>
        <time>2026-08-21T14:07:40.187Z</time>
      </trkpt>
      <trkpt lat="47.065644" lon="11.032051">
        <ele>1625.755489</ele>
        <time>2026-08-21T14:07:44.645Z</time>
      </trkpt>
      <trkpt lat="47.065968" lon="11.031857">
        <ele>1623.246127</ele>
        <time>2026-08-21T14:07:49.009Z</time>
      </trkpt>
      <trkpt lat="47.066969" lon="11.031328">
        <ele>1615.625849</ele>
        <time>2026-08-21T14:08:02.296Z</time>
      </trkpt>
      <trkpt lat="47.067271" lon="11.031097">
        <ele>1613.203386</ele>
        <time>2026-08-21T14:08:06.570Z</time>
      </trkpt>
      <trkpt lat="47.067559" lon="11.030825">
        <ele>1610.767301</ele>
        <time>2026-08-21T14:08:10.881Z</time>
      </trkpt>
      <trkpt lat="47.067983" lon="11.030323">
        <ele>1606.892462</ele>
        <time>2026-08-21T14:08:17.749Z</time>
      </trkpt>
      <trkpt lat="47.068204" lon="11.030062">
        <ele>1604.874791</ele>
        <time>2026-08-21T14:08:21.322Z</time>
      </trkpt>
      <trkpt lat="47.068572" lon="11.029568">
        <ele>1601.646938</ele>
        <time>2026-08-21T14:08:27.614Z</time>
      </trkpt>
      <trkpt lat="47.068958" lon="11.028970">
        <ele>1598.137261</ele>
        <time>2026-08-21T14:08:34.743Z</time>
      </trkpt>
      <trkpt lat="47.069267" lon="11.028155">
        <ele>1594.163762</ele>
        <time>2026-08-21T14:08:42.961Z</time>
      </trkpt>
      <trkpt lat="47.069308" lon="11.028029">
        <ele>1593.568903</ele>
        <time>2026-08-21T14:08:44.208Z</time>
      </trkpt>
      <trkpt lat="47.069395" lon="11.027767">
        <ele>1592.439926</ele>
        <time>2026-08-21T14:08:46.985Z</time>
      </trkpt>
      <trkpt lat="47.069406" lon="11.027734">
        <ele>1592.328140</ele>
        <time>2026-08-21T14:08:47.338Z</time>
      </trkpt>
      <trkpt lat="47.069432" lon="11.027657">
        <ele>1592.066648</ele>
        <time>2026-08-21T14:08:48.163Z</time>
      </trkpt>
      <trkpt lat="47.069747" lon="11.026702">
        <ele>1588.838148</ele>
        <time>2026-08-21T14:08:58.555Z</time>
      </trkpt>
      <trkpt lat="47.070082" lon="11.025750">
        <ele>1585.577846</ele>
        <time>2026-08-21T14:09:09.303Z</time>
      </trkpt>
      <trkpt lat="47.070249" lon="11.024846">
        <ele>1582.812108</ele>
        <time>2026-08-21T14:09:18.782Z</time>
      </trkpt>
      <trkpt lat="47.070310" lon="11.024143">
        <ele>1580.748502</ele>
        <time>2026-08-21T14:09:25.470Z</time>
      </trkpt>
      <trkpt lat="47.070319" lon="11.024040">
        <ele>1580.446119</ele>
        <time>2026-08-21T14:09:26.436Z</time>
      </trkpt>
      <trkpt lat="47.070321" lon="11.024016">
        <ele>1580.375712</ele>
        <time>2026-08-21T14:09:26.664Z</time>
      </trkpt>
      <trkpt lat="47.070403" lon="11.023459">
        <ele>1578.716335</ele>
        <time>2026-08-21T14:09:31.923Z</time>
      </trkpt>
      <trkpt lat="47.070451" lon="11.023140">
        <ele>1577.765045</ele>
        <time>2026-08-21T14:09:34.907Z</time>
      </trkpt>
      <trkpt lat="47.070481" lon="11.022936">
        <ele>1577.157333</ele>
        <time>2026-08-21T14:09:36.817Z</time>
      </trkpt>
      <trkpt lat="47.070527" lon="11.022680">
        <ele>1576.318870</ele>
        <time>2026-08-21T14:09:39.231Z</time>
      </trkpt>
      <trkpt lat="47.070592" lon="11.022382">
        <ele>1575.306989</ele>
        <time>2026-08-21T14:09:42.091Z</time>
      </trkpt>
      <trkpt lat="47.070751" lon="11.022074">
        <ele>1574.057217</ele>
        <time>2026-08-21T14:09:45.607Z</time>
      </trkpt>
      <trkpt lat="47.070927" lon="11.021760">
        <ele>1572.742177</ele>
        <time>2026-08-21T14:09:49.334Z</time>
      </trkpt>
      <trkpt lat="47.071130" lon="11.021372">
        <ele>1571.160016</ele>
        <time>2026-08-21T14:09:53.794Z</time>
      </trkpt>
      <trkpt lat="47.071363" lon="11.020919">
        <ele>1569.324336</ele>
        <time>2026-08-21T14:09:58.980Z</time>
      </trkpt>
      <trkpt lat="47.071580" lon="11.020514">
        <ele>1567.642291</ele>
        <time>2026-08-21T14:10:03.792Z</time>
      </trkpt>
      <trkpt lat="47.071708" lon="11.020264">
        <ele>1566.611050</ele>
        <time>2026-08-21T14:10:06.707Z</time>
      </trkpt>
      <trkpt lat="47.071902" lon="11.019888">
        <ele>1565.055726</ele>
        <time>2026-08-21T14:10:11.037Z</time>
      </trkpt>
      <trkpt lat="47.071968" lon="11.019746">
        <ele>1564.488891</ele>
        <time>2026-08-21T14:10:12.610Z</time>
      </trkpt>
      <trkpt lat="47.072110" lon="11.019377">
        <ele>1563.091450</ele>
        <time>2026-08-21T14:10:16.467Z</time>
      </trkpt>
      <trkpt lat="47.072137" lon="11.019221">
        <ele>1562.560741</ele>
        <time>2026-08-21T14:10:17.922Z</time>
      </trkpt>
      <trkpt lat="47.072145" lon="11.017950">
        <ele>1558.354844</ele>
        <time>2026-08-21T14:10:29.426Z</time>
      </trkpt>
      <trkpt lat="47.072142" lon="11.015851">
        <ele>1551.358814</ele>
        <time>2026-08-21T14:10:48.443Z</time>
      </trkpt>
      <trkpt lat="47.072140" lon="11.014508">
        <ele>1549.378996</ele>
        <time>2026-08-21T14:11:01.267Z</time>
      </trkpt>
      <trkpt lat="47.072137" lon="11.013456">
        <ele>1548.025912</ele>
        <time>2026-08-21T14:11:13.138Z</time>
      </trkpt>
      <trkpt lat="47.072130" lon="11.013152">
        <ele>1547.634687</ele>
        <time>2026-08-21T14:11:17.081Z</time>
      </trkpt>
      <trkpt lat="47.072109" lon="11.011553">
        <ele>1549.063274</ele>
        <time>2026-08-21T14:11:43.197Z</time>
      </trkpt>
      <trkpt lat="47.072107" lon="11.011374">
        <ele>1549.239729</ele>
        <time>2026-08-21T14:11:46.174Z</time>
      </trkpt>
      <trkpt lat="47.072037" lon="11.010861">
        <ele>1549.755413</ele>
        <time>2026-08-21T14:11:54.322Z</time>
      </trkpt>
      <trkpt lat="47.072009" lon="11.010473">
        <ele>1550.139985</ele>
        <time>2026-08-21T14:11:59.517Z</time>
      </trkpt>
      <trkpt lat="47.072021" lon="11.010140">
        <ele>1548.637115</ele>
        <time>2026-08-21T14:12:03.351Z</time>
      </trkpt>
      <trkpt lat="47.072152" lon="11.009425">
        <ele>1545.118944</ele>
        <time>2026-08-21T14:12:10.384Z</time>
      </trkpt>
      <trkpt lat="47.072295" lon="11.008912">
        <ele>1542.485123</ele>
        <time>2026-08-21T14:12:14.990Z</time>
      </trkpt>
      <trkpt lat="47.072447" lon="11.008569">
        <ele>1540.540710</ele>
        <time>2026-08-21T14:12:18.289Z</time>
      </trkpt>
      <trkpt lat="47.072541" lon="11.008422">
        <ele>1539.582615</ele>
        <time>2026-08-21T14:12:19.899Z</time>
      </trkpt>
      <trkpt lat="47.072614" lon="11.008308">
        <ele>1538.839116</ele>
        <time>2026-08-21T14:12:21.148Z</time>
      </trkpt>
      <trkpt lat="47.072651" lon="11.008249">
        <ele>1538.458034</ele>
        <time>2026-08-21T14:12:21.790Z</time>
      </trkpt>
      <trkpt lat="47.072832" lon="11.007967">
        <ele>1536.128388</ele>
        <time>2026-08-21T14:12:24.874Z</time>
      </trkpt>
      <trkpt lat="47.073178" lon="11.007505">
        <ele>1531.253798</ele>
        <time>2026-08-21T14:12:30.335Z</time>
      </trkpt>
      <trkpt lat="47.073258" lon="11.007340">
        <ele>1529.816023</ele>
        <time>2026-08-21T14:12:31.944Z</time>
      </trkpt>
      <trkpt lat="47.073309" lon="11.007167">
        <ele>1528.477839</ele>
        <time>2026-08-21T14:12:33.447Z</time>
      </trkpt>
      <trkpt lat="47.073342" lon="11.006741">
        <ele>1525.434299</ele>
        <time>2026-08-21T14:12:36.882Z</time>
      </trkpt>
      <trkpt lat="47.073277" lon="11.005591">
        <ele>1517.702444</ele>
        <time>2026-08-21T14:12:46.489Z</time>
      </trkpt>
      <trkpt lat="47.073277" lon="11.005265">
        <ele>1516.046718</ele>
        <time>2026-08-21T14:12:49.267Z</time>
      </trkpt>
      <trkpt lat="47.073412" lon="11.004518">
        <ele>1512.121474</ele>
        <time>2026-08-21T14:12:55.897Z</time>
      </trkpt>
      <trkpt lat="47.073552" lon="11.003986">
        <ele>1509.224813</ele>
        <time>2026-08-21T14:13:00.829Z</time>
      </trkpt>
      <trkpt lat="47.073587" lon="11.003368">
        <ele>1506.075227</ele>
        <time>2026-08-21T14:13:06.163Z</time>
      </trkpt>
      <trkpt lat="47.073577" lon="11.003079">
        <ele>1504.299312</ele>
        <time>2026-08-21T14:13:08.623Z</time>
      </trkpt>
      <trkpt lat="47.073601" lon="11.002865">
        <ele>1502.796127</ele>
        <time>2026-08-21T14:13:10.447Z</time>
      </trkpt>
      <trkpt lat="47.073761" lon="11.002130">
        <ele>1497.448042</ele>
        <time>2026-08-21T14:13:16.839Z</time>
      </trkpt>
      <trkpt lat="47.073961" lon="11.000857">
        <ele>1488.393354</ele>
        <time>2026-08-21T14:13:27.366Z</time>
      </trkpt>
      <trkpt lat="47.073964" lon="11.000098">
        <ele>1481.484430</ele>
        <time>2026-08-21T14:13:33.300Z</time>
      </trkpt>
      <trkpt lat="47.074131" lon="10.998871">
        <ele>1469.245966</ele>
        <time>2026-08-21T14:13:42.949Z</time>
      </trkpt>
      <trkpt lat="47.074156" lon="10.998519">
        <ele>1465.784427</ele>
        <time>2026-08-21T14:13:45.673Z</time>
      </trkpt>
      <trkpt lat="47.074094" lon="10.997479">
        <ele>1456.841659</ele>
        <time>2026-08-21T14:13:53.841Z</time>
      </trkpt>
      <trkpt lat="47.074078" lon="10.997270">
        <ele>1455.239354</ele>
        <time>2026-08-21T14:13:55.517Z</time>
      </trkpt>
      <trkpt lat="47.074106" lon="10.996508">
        <ele>1449.425572</ele>
        <time>2026-08-21T14:14:01.662Z</time>
      </trkpt>
      <trkpt lat="47.074094" lon="10.996239">
        <ele>1447.371790</ele>
        <time>2026-08-21T14:14:03.843Z</time>
      </trkpt>
      <trkpt lat="47.074051" lon="10.996004">
        <ele>1445.517938</ele>
        <time>2026-08-21T14:14:05.822Z</time>
      </trkpt>
      <trkpt lat="47.073915" lon="10.995574">
        <ele>1441.905930</ele>
        <time>2026-08-21T14:14:09.706Z</time>
      </trkpt>
      <trkpt lat="47.073774" lon="10.995016">
        <ele>1438.849040</ele>
        <time>2026-08-21T14:14:14.596Z</time>
      </trkpt>
      <trkpt lat="47.073716" lon="10.994454">
        <ele>1436.194273</ele>
        <time>2026-08-21T14:14:19.462Z</time>
      </trkpt>
      <trkpt lat="47.073722" lon="10.994203">
        <ele>1435.021264</ele>
        <time>2026-08-21T14:14:21.649Z</time>
      </trkpt>
      <trkpt lat="47.073736" lon="10.994052">
        <ele>1434.309518</ele>
        <time>2026-08-21T14:14:22.977Z</time>
      </trkpt>
      <trkpt lat="47.073804" lon="10.993897">
        <ele>1433.448403</ele>
        <time>2026-08-21T14:14:24.590Z</time>
      </trkpt>
      <trkpt lat="47.073999" lon="10.993671">
        <ele>1431.744773</ele>
        <time>2026-08-21T14:14:27.840Z</time>
      </trkpt>
      <trkpt lat="47.074187" lon="10.993562">
        <ele>1430.358660</ele>
        <time>2026-08-21T14:14:30.488Z</time>
      </trkpt>
      <trkpt lat="47.074264" lon="10.993517">
        <ele>1429.790330</ele>
        <time>2026-08-21T14:14:31.612Z</time>
      </trkpt>
      <trkpt lat="47.074500" lon="10.993242">
        <ele>1427.701781</ele>
        <time>2026-08-21T14:14:35.635Z</time>
      </trkpt>
      <trkpt lat="47.074591" lon="10.993074">
        <ele>1426.679361</ele>
        <time>2026-08-21T14:14:37.593Z</time>
      </trkpt>
      <trkpt lat="47.074694" lon="10.992743">
        <ele>1424.946027</ele>
        <time>2026-08-21T14:14:40.877Z</time>
      </trkpt>
      <trkpt lat="47.074761" lon="10.992302">
        <ele>1422.793907</ele>
        <time>2026-08-21T14:14:44.883Z</time>
      </trkpt>
      <trkpt lat="47.074820" lon="10.992024">
        <ele>1421.406987</ele>
        <time>2026-08-21T14:14:47.343Z</time>
      </trkpt>
      <trkpt lat="47.074946" lon="10.991703">
        <ele>1419.642298</ele>
        <time>2026-08-21T14:14:50.428Z</time>
      </trkpt>
      <trkpt lat="47.074993" lon="10.991504">
        <ele>1418.639084</ele>
        <time>2026-08-21T14:14:52.175Z</time>
      </trkpt>
      <trkpt lat="47.074988" lon="10.991008">
        <ele>1416.276381</ele>
        <time>2026-08-21T14:14:56.293Z</time>
      </trkpt>
      <trkpt lat="47.075075" lon="10.990523">
        <ele>1413.087891</ele>
        <time>2026-08-21T14:15:00.447Z</time>
      </trkpt>
      <trkpt lat="47.075074" lon="10.990353">
        <ele>1412.007049</ele>
        <time>2026-08-21T14:15:01.862Z</time>
      </trkpt>
      <trkpt lat="47.075036" lon="10.990100">
        <ele>1410.359909</ele>
        <time>2026-08-21T14:15:04.006Z</time>
      </trkpt>
      <trkpt lat="47.075041" lon="10.989904">
        <ele>1409.112934</ele>
        <time>2026-08-21T14:15:05.631Z</time>
      </trkpt>
      <trkpt lat="47.075156" lon="10.989473">
        <ele>1406.169990</ele>
        <time>2026-08-21T14:15:09.461Z</time>
      </trkpt>
      <trkpt lat="47.075179" lon="10.989264">
        <ele>1404.824007</ele>
        <time>2026-08-21T14:15:11.215Z</time>
      </trkpt>
      <trkpt lat="47.075186" lon="10.987998">
        <ele>1397.995482</ele>
        <time>2026-08-21T14:15:21.455Z</time>
      </trkpt>
      <trkpt lat="47.075157" lon="10.987789">
        <ele>1397.250105</ele>
        <time>2026-08-21T14:15:23.166Z</time>
      </trkpt>
      <trkpt lat="47.075081" lon="10.987528">
        <ele>1396.258141</ele>
        <time>2026-08-21T14:15:25.499Z</time>
      </trkpt>
      <trkpt lat="47.075057" lon="10.987318">
        <ele>1395.514012</ele>
        <time>2026-08-21T14:15:27.302Z</time>
      </trkpt>
      <trkpt lat="47.075078" lon="10.986325">
        <ele>1392.042193</ele>
        <time>2026-08-21T14:15:37.288Z</time>
      </trkpt>
      <trkpt lat="47.075120" lon="10.985979">
        <ele>1390.814003</ele>
        <time>2026-08-21T14:15:41.923Z</time>
      </trkpt>
      <trkpt lat="47.075199" lon="10.985612">
        <ele>1390.387921</ele>
        <time>2026-08-21T14:15:47.389Z</time>
      </trkpt>
      <trkpt lat="47.075164" lon="10.985167">
        <ele>1390.650589</ele>
        <time>2026-08-21T14:15:52.476Z</time>
      </trkpt>
      <trkpt lat="47.075222" lon="10.984696">
        <ele>1390.931247</ele>
        <time>2026-08-21T14:15:58.056Z</time>
      </trkpt>
      <trkpt lat="47.075211" lon="10.984554">
        <ele>1391.015048</ele>
        <time>2026-08-21T14:16:00.129Z</time>
      </trkpt>
      <trkpt lat="47.075115" lon="10.984365">
        <ele>1391.153300</ele>
        <time>2026-08-21T14:16:03.616Z</time>
      </trkpt>
      <trkpt lat="47.075002" lon="10.984313">
        <ele>1391.255258</ele>
        <time>2026-08-21T14:16:06.206Z</time>
      </trkpt>
      <trkpt lat="47.074814" lon="10.984319">
        <ele>1391.417163</ele>
        <time>2026-08-21T14:16:10.060Z</time>
      </trkpt>
      <trkpt lat="47.074709" lon="10.984202">
        <ele>1391.530651</ele>
        <time>2026-08-21T14:16:12.789Z</time>
      </trkpt>
      <trkpt lat="47.074593" lon="10.983989">
        <ele>1391.690571</ele>
        <time>2026-08-21T14:16:16.469Z</time>
      </trkpt>
      <trkpt lat="47.074593" lon="10.983656">
        <ele>1392.774292</ele>
        <time>2026-08-21T14:16:23.584Z</time>
      </trkpt>
      <trkpt lat="47.074429" lon="10.983088">
        <ele>1397.087502</ele>
        <time>2026-08-21T14:16:38.127Z</time>
      </trkpt>
      <trkpt lat="47.074433" lon="10.982776">
        <ele>1399.269186</ele>
        <time>2026-08-21T14:16:47.637Z</time>
      </trkpt>
      <trkpt lat="47.074520" lon="10.981875">
        <ele>1405.631374</ele>
        <time>2026-08-21T14:17:26.668Z</time>
      </trkpt>
      <trkpt lat="47.074504" lon="10.981618">
        <ele>1407.435637</ele>
        <time>2026-08-21T14:17:37.263Z</time>
      </trkpt>
      <trkpt lat="47.074625" lon="10.981175">
        <ele>1410.756437</ele>
        <time>2026-08-21T14:17:55.774Z</time>
      </trkpt>
      <trkpt lat="47.074737" lon="10.980909">
        <ele>1412.872761</ele>
        <time>2026-08-21T14:18:06.965Z</time>
      </trkpt>
      <trkpt lat="47.075061" lon="10.980084">
        <ele>1419.317451</ele>
        <time>2026-08-21T14:18:36.433Z</time>
      </trkpt>
      <trkpt lat="47.075249" lon="10.979746">
        <ele>1422.270659</ele>
        <time>2026-08-21T14:18:48.647Z</time>
      </trkpt>
      <trkpt lat="47.075450" lon="10.979038">
        <ele>1427.461419</ele>
        <time>2026-08-21T14:19:10.834Z</time>
      </trkpt>
      <trkpt lat="47.075819" lon="10.978625">
        <ele>1432.061213</ele>
        <time>2026-08-21T14:19:33.142Z</time>
      </trkpt>
      <trkpt lat="47.076102" lon="10.978257">
        <ele>1435.807382</ele>
        <time>2026-08-21T14:19:51.576Z</time>
      </trkpt>
      <trkpt lat="47.076299" lon="10.977823">
        <ele>1439.327419</ele>
        <time>2026-08-21T14:20:08.393Z</time>
      </trkpt>
      <trkpt lat="47.076553" lon="10.977589">
        <ele>1442.298953</ele>
        <time>2026-08-21T14:20:22.632Z</time>
      </trkpt>
      <trkpt lat="47.076990" lon="10.976956">
        <ele>1448.304241</ele>
        <time>2026-08-21T14:20:50.599Z</time>
      </trkpt>
      <trkpt lat="47.077030" lon="10.976873">
        <ele>1448.968351</ele>
        <time>2026-08-21T14:20:53.742Z</time>
      </trkpt>
      <trkpt lat="47.077078" lon="10.976543">
        <ele>1451.172306</ele>
        <time>2026-08-21T14:21:04.394Z</time>
      </trkpt>
      <trkpt lat="47.077187" lon="10.976371">
        <ele>1452.706845</ele>
        <time>2026-08-21T14:21:12.071Z</time>
      </trkpt>
      <trkpt lat="47.077567" lon="10.975974">
        <ele>1457.179555</ele>
        <time>2026-08-21T14:21:35.486Z</time>
      </trkpt>
      <trkpt lat="47.078035" lon="10.975331">
        <ele>1463.219241</ele>
        <time>2026-08-21T14:22:08.439Z</time>
      </trkpt>
      <trkpt lat="47.078590" lon="10.974837">
        <ele>1463.429609</ele>
        <time>2026-08-21T14:22:28.829Z</time>
      </trkpt>
      <trkpt lat="47.078676" lon="10.974676">
        <ele>1463.474776</ele>
        <time>2026-08-21T14:22:32.681Z</time>
      </trkpt>
      <trkpt lat="47.078760" lon="10.974349">
        <ele>1463.551922</ele>
        <time>2026-08-21T14:22:39.029Z</time>
      </trkpt>
      <trkpt lat="47.078966" lon="10.973764">
        <ele>1463.697296</ele>
        <time>2026-08-21T14:22:50.434Z</time>
      </trkpt>
      <trkpt lat="47.079094" lon="10.973475">
        <ele>1463.773394</ele>
        <time>2026-08-21T14:22:56.417Z</time>
      </trkpt>
      <trkpt lat="47.079504" lon="10.972777">
        <ele>1466.714996</ele>
        <time>2026-08-21T14:23:13.023Z</time>
      </trkpt>
      <trkpt lat="47.079825" lon="10.972369">
        <ele>1468.965258</ele>
        <time>2026-08-21T14:23:27.939Z</time>
      </trkpt>
      <trkpt lat="47.080011" lon="10.972270">
        <ele>1470.013902</ele>
        <time>2026-08-21T14:23:36.726Z</time>
      </trkpt>
      <trkpt lat="47.080373" lon="10.971898">
        <ele>1472.355811</ele>
        <time>2026-08-21T14:23:58.032Z</time>
      </trkpt>
      <trkpt lat="47.080504" lon="10.971672">
        <ele>1473.554868</ele>
        <time>2026-08-21T14:24:08.920Z</time>
      </trkpt>
      <trkpt lat="47.080672" lon="10.971490">
        <ele>1476.151237</ele>
        <time>2026-08-21T14:24:20.750Z</time>
      </trkpt>
      <trkpt lat="47.080974" lon="10.971463">
        <ele>1479.914046</ele>
        <time>2026-08-21T14:24:37.943Z</time>
      </trkpt>
      <trkpt lat="47.081423" lon="10.971172">
        <ele>1486.017725</ele>
        <time>2026-08-21T14:25:07.160Z</time>
      </trkpt>
      <trkpt lat="47.081467" lon="10.971195">
        <ele>1486.598569</ele>
        <time>2026-08-21T14:25:09.957Z</time>
      </trkpt>
      <trkpt lat="47.081489" lon="10.971249">
        <ele>1487.131483</ele>
        <time>2026-08-21T14:25:12.446Z</time>
      </trkpt>
      <trkpt lat="47.081454" lon="10.971361">
        <ele>1488.175098</ele>
        <time>2026-08-21T14:25:17.373Z</time>
      </trkpt>
      <trkpt lat="47.081196" lon="10.971758">
        <ele>1492.822600</ele>
        <time>2026-08-21T14:25:38.434Z</time>
      </trkpt>
      <trkpt lat="47.081334" lon="10.971706">
        <ele>1494.594450</ele>
        <time>2026-08-21T14:25:46.080Z</time>
      </trkpt>
      <trkpt lat="47.081674" lon="10.971419">
        <ele>1495.813790</ele>
        <time>2026-08-21T14:26:04.086Z</time>
      </trkpt>
      <trkpt lat="47.082251" lon="10.970814">
        <ele>1496.077241</ele>
        <time>2026-08-21T14:26:26.333Z</time>
      </trkpt>
      <trkpt lat="47.082506" lon="10.970395">
        <ele>1496.219435</ele>
        <time>2026-08-21T14:26:36.047Z</time>
      </trkpt>
      <trkpt lat="47.083273" lon="10.969752">
        <ele>1491.329060</ele>
        <time>2026-08-21T14:26:55.669Z</time>
      </trkpt>
      <trkpt lat="47.083595" lon="10.969623">
        <ele>1487.819494</ele>
        <time>2026-08-21T14:27:02.690Z</time>
      </trkpt>
      <trkpt lat="47.084114" lon="10.969559">
        <ele>1482.342983</ele>
        <time>2026-08-21T14:27:13.585Z</time>
      </trkpt>
      <trkpt lat="47.084581" lon="10.969376">
        <ele>1477.223527</ele>
        <time>2026-08-21T14:27:23.687Z</time>
      </trkpt>
      <trkpt lat="47.085685" lon="10.968713">
        <ele>1462.306299</ele>
        <time>2026-08-21T14:27:48.504Z</time>
      </trkpt>
      <trkpt lat="47.085871" lon="10.968729">
        <ele>1459.976058</ele>
        <time>2026-08-21T14:27:52.364Z</time>
      </trkpt>
      <trkpt lat="47.086166" lon="10.968346">
        <ele>1455.051618</ele>
        <time>2026-08-21T14:28:00.485Z</time>
      </trkpt>
      <trkpt lat="47.086319" lon="10.968257">
        <ele>1452.944422</ele>
        <time>2026-08-21T14:28:03.862Z</time>
      </trkpt>
      <trkpt lat="47.086383" lon="10.968147">
        <ele>1451.681585</ele>
        <time>2026-08-21T14:28:05.884Z</time>
      </trkpt>
      <trkpt lat="47.086605" lon="10.967356">
        <ele>1444.214308</ele>
        <time>2026-08-21T14:28:17.776Z</time>
      </trkpt>
      <trkpt lat="47.086734" lon="10.967134">
        <ele>1441.667044</ele>
        <time>2026-08-21T14:28:21.881Z</time>
      </trkpt>
      <trkpt lat="47.086948" lon="10.966898">
        <ele>1438.236675</ele>
        <time>2026-08-21T14:28:27.426Z</time>
      </trkpt>
      <trkpt lat="47.087058" lon="10.966737">
        <ele>1436.246024</ele>
        <time>2026-08-21T14:28:30.674Z</time>
      </trkpt>
      <trkpt lat="47.086641" lon="10.966566">
        <ele>1430.635079</ele>
        <time>2026-08-21T14:28:39.745Z</time>
      </trkpt>
      <trkpt lat="47.086393" lon="10.966791">
        <ele>1426.709281</ele>
        <time>2026-08-21T14:28:45.838Z</time>
      </trkpt>
      <trkpt lat="47.086223" lon="10.967087">
        <ele>1423.158369</ele>
        <time>2026-08-21T14:28:51.299Z</time>
      </trkpt>
      <trkpt lat="47.086111" lon="10.967132">
        <ele>1421.594595</ele>
        <time>2026-08-21T14:28:53.698Z</time>
      </trkpt>
      <trkpt lat="47.085663" lon="10.967139">
        <ele>1415.560861</ele>
        <time>2026-08-21T14:29:02.918Z</time>
      </trkpt>
      <trkpt lat="47.085037" lon="10.967528">
        <ele>1405.928966</ele>
        <time>2026-08-21T14:29:16.680Z</time>
      </trkpt>
      <trkpt lat="47.084673" lon="10.967441">
        <ele>1399.103270</ele>
        <time>2026-08-21T14:29:24.087Z</time>
      </trkpt>
      <trkpt lat="47.084553" lon="10.967500">
        <ele>1396.761101</ele>
        <time>2026-08-21T14:29:26.601Z</time>
      </trkpt>
      <trkpt lat="47.084451" lon="10.967480">
        <ele>1394.856492</ele>
        <time>2026-08-21T14:29:28.623Z</time>
      </trkpt>
      <trkpt lat="47.084146" lon="10.967498">
        <ele>1389.206873</ele>
        <time>2026-08-21T14:29:34.601Z</time>
      </trkpt>
      <trkpt lat="47.083763" lon="10.967402">
        <ele>1382.015648</ele>
        <time>2026-08-21T14:29:42.190Z</time>
      </trkpt>
      <trkpt lat="47.083058" lon="10.967453">
        <ele>1368.455415</ele>
        <time>2026-08-21T14:29:55.918Z</time>
      </trkpt>
      <trkpt lat="47.082722" lon="10.967445">
        <ele>1361.668853</ele>
        <time>2026-08-21T14:30:02.423Z</time>
      </trkpt>
      <trkpt lat="47.082565" lon="10.967479">
        <ele>1358.463878</ele>
        <time>2026-08-21T14:30:05.480Z</time>
      </trkpt>
      <trkpt lat="47.082313" lon="10.967626">
        <ele>1352.987828</ele>
        <time>2026-08-21T14:30:10.737Z</time>
      </trkpt>
      <trkpt lat="47.082007" lon="10.967900">
        <ele>1345.749849</ele>
        <time>2026-08-21T14:30:17.771Z</time>
      </trkpt>
      <trkpt lat="47.081753" lon="10.968207">
        <ele>1339.106225</ele>
        <time>2026-08-21T14:30:24.261Z</time>
      </trkpt>
      <trkpt lat="47.081254" lon="10.968540">
        <ele>1329.874019</ele>
        <time>2026-08-21T14:30:35.118Z</time>
      </trkpt>
      <trkpt lat="47.081188" lon="10.968534">
        <ele>1328.783127</ele>
        <time>2026-08-21T14:30:36.411Z</time>
      </trkpt>
      <trkpt lat="47.081210" lon="10.968459">
        <ele>1327.865741</ele>
        <time>2026-08-21T14:30:37.503Z</time>
      </trkpt>
      <trkpt lat="47.081489" lon="10.968175">
        <ele>1322.265432</ele>
        <time>2026-08-21T14:30:44.128Z</time>
      </trkpt>
      <trkpt lat="47.081831" lon="10.967724">
        <ele>1314.682494</ele>
        <time>2026-08-21T14:30:53.163Z</time>
      </trkpt>
      <trkpt lat="47.081922" lon="10.967558">
        <ele>1312.288505</ele>
        <time>2026-08-21T14:30:56.103Z</time>
      </trkpt>
      <trkpt lat="47.082046" lon="10.967274">
        <ele>1308.498634</ele>
        <time>2026-08-21T14:31:00.861Z</time>
      </trkpt>
      <trkpt lat="47.082006" lon="10.967236">
        <ele>1308.464816</ele>
        <time>2026-08-21T14:31:01.867Z</time>
      </trkpt>
      <trkpt lat="47.081969" lon="10.967258">
        <ele>1308.531070</ele>
        <time>2026-08-21T14:31:02.711Z</time>
      </trkpt>
      <trkpt lat="47.081801" lon="10.967536">
        <ele>1308.951155</ele>
        <time>2026-08-21T14:31:08.406Z</time>
      </trkpt>
      <trkpt lat="47.081765" lon="10.967526">
        <ele>1309.011966</ele>
        <time>2026-08-21T14:31:09.312Z</time>
      </trkpt>
      <trkpt lat="47.081758" lon="10.967472">
        <ele>1309.074093</ele>
        <time>2026-08-21T14:31:10.233Z</time>
      </trkpt>
      <trkpt lat="47.081907" lon="10.967033">
        <ele>1309.628473</ele>
        <time>2026-08-21T14:31:19.923Z</time>
      </trkpt>
      <trkpt lat="47.082076" lon="10.966981">
        <ele>1309.915061</ele>
        <time>2026-08-21T14:31:25.362Z</time>
      </trkpt>
      <trkpt lat="47.082287" lon="10.967009">
        <ele>1310.266696</ele>
        <time>2026-08-21T14:31:33.095Z</time>
      </trkpt>
      <trkpt lat="47.082449" lon="10.966913">
        <ele>1310.556641</ele>
        <time>2026-08-21T14:31:41.136Z</time>
      </trkpt>
      <trkpt lat="47.082765" lon="10.966597">
        <ele>1311.191173</ele>
        <time>2026-08-21T14:32:02.018Z</time>
      </trkpt>
      <trkpt lat="47.083111" lon="10.966399">
        <ele>1311.145967</ele>
        <time>2026-08-21T14:32:20.599Z</time>
      </trkpt>
      <trkpt lat="47.083476" lon="10.966297">
        <ele>1310.805319</ele>
        <time>2026-08-21T14:32:33.961Z</time>
      </trkpt>
      <trkpt lat="47.083573" lon="10.966222">
        <ele>1310.704813</ele>
        <time>2026-08-21T14:32:37.321Z</time>
      </trkpt>
      <trkpt lat="47.083748" lon="10.965997">
        <ele>1310.491567</ele>
        <time>2026-08-21T14:32:43.998Z</time>
      </trkpt>
      <trkpt lat="47.084040" lon="10.965718">
        <ele>1310.172178</ele>
        <time>2026-08-21T14:32:52.428Z</time>
      </trkpt>
      <trkpt lat="47.084451" lon="10.965410">
        <ele>1309.749136</ele>
        <time>2026-08-21T14:33:02.617Z</time>
      </trkpt>
      <trkpt lat="47.085107" lon="10.964815">
        <ele>1297.570950</ele>
        <time>2026-08-21T14:33:18.394Z</time>
      </trkpt>
      <trkpt lat="47.085129" lon="10.964795">
        <ele>1297.152891</ele>
        <time>2026-08-21T14:33:18.908Z</time>
      </trkpt>
      <trkpt lat="47.085501" lon="10.964624">
        <ele>1290.854723</ele>
        <time>2026-08-21T14:33:26.683Z</time>
      </trkpt>
      <trkpt lat="47.085874" lon="10.964377">
        <ele>1284.243631</ele>
        <time>2026-08-21T14:33:34.637Z</time>
      </trkpt>
      <trkpt lat="47.086142" lon="10.964004">
        <ele>1277.549092</ele>
        <time>2026-08-21T14:33:41.828Z</time>
      </trkpt>
      <trkpt lat="47.086315" lon="10.963846">
        <ele>1273.254907</ele>
        <time>2026-08-21T14:33:45.792Z</time>
      </trkpt>
      <trkpt lat="47.086299" lon="10.963750">
        <ele>1271.836407</ele>
        <time>2026-08-21T14:33:47.098Z</time>
      </trkpt>
      <trkpt lat="47.086108" lon="10.963605">
        <ele>1267.304328</ele>
        <time>2026-08-21T14:33:51.262Z</time>
      </trkpt>
      <trkpt lat="47.085889" lon="10.963583">
        <ele>1262.677327</ele>
        <time>2026-08-21T14:33:55.514Z</time>
      </trkpt>
      <trkpt lat="47.085753" lon="10.963655">
        <ele>1259.630068</ele>
        <time>2026-08-21T14:33:58.307Z</time>
      </trkpt>
      <trkpt lat="47.085239" lon="10.963980">
        <ele>1247.834195</ele>
        <time>2026-08-21T14:34:09.143Z</time>
      </trkpt>
      <trkpt lat="47.085158" lon="10.963894">
        <ele>1245.727381</ele>
        <time>2026-08-21T14:34:11.078Z</time>
      </trkpt>
      <trkpt lat="47.085567" lon="10.963176">
        <ele>1236.937397</ele>
        <time>2026-08-21T14:34:23.863Z</time>
      </trkpt>
      <trkpt lat="47.085742" lon="10.963027">
        <ele>1234.566247</ele>
        <time>2026-08-21T14:34:27.941Z</time>
      </trkpt>
      <trkpt lat="47.086484" lon="10.962829">
        <ele>1225.726124</ele>
        <time>2026-08-21T14:34:44.034Z</time>
      </trkpt>
      <trkpt lat="47.086638" lon="10.962744">
        <ele>1223.797665</ele>
        <time>2026-08-21T14:34:47.856Z</time>
      </trkpt>
      <trkpt lat="47.087122" lon="10.962795">
        <ele>1220.559791</ele>
        <time>2026-08-21T14:34:59.674Z</time>
      </trkpt>
      <trkpt lat="47.087618" lon="10.962586">
        <ele>1218.668999</ele>
        <time>2026-08-21T14:35:13.017Z</time>
      </trkpt>
      <trkpt lat="47.087857" lon="10.962547">
        <ele>1217.787853</ele>
        <time>2026-08-21T14:35:20.185Z</time>
      </trkpt>
      <trkpt lat="47.088304" lon="10.962551">
        <ele>1216.149902</ele>
        <time>2026-08-21T14:35:33.519Z</time>
      </trkpt>
      <trkpt lat="47.088642" lon="10.962617">
        <ele>1214.632383</ele>
        <time>2026-08-21T14:35:41.872Z</time>
      </trkpt>
      <trkpt lat="47.088804" lon="10.962693">
        <ele>1213.095412</ele>
        <time>2026-08-21T14:35:45.737Z</time>
      </trkpt>
      <trkpt lat="47.089066" lon="10.962817">
        <ele>1210.607651</ele>
        <time>2026-08-21T14:35:51.813Z</time>
      </trkpt>
      <trkpt lat="47.089203" lon="10.962820">
        <ele>1209.369358</ele>
        <time>2026-08-21T14:35:54.751Z</time>
      </trkpt>
      <trkpt lat="47.089250" lon="10.962781">
        <ele>1208.881486</ele>
        <time>2026-08-21T14:35:55.920Z</time>
      </trkpt>
      <trkpt lat="47.089257" lon="10.962725">
        <ele>1208.531140</ele>
        <time>2026-08-21T14:35:56.741Z</time>
      </trkpt>
      <trkpt lat="47.089216" lon="10.962663">
        <ele>1207.999304</ele>
        <time>2026-08-21T14:35:58.008Z</time>
      </trkpt>
      <trkpt lat="47.089073" lon="10.962631">
        <ele>1206.692009</ele>
        <time>2026-08-21T14:36:01.081Z</time>
      </trkpt>
      <trkpt lat="47.088989" lon="10.962552">
        <ele>1205.790546</ele>
        <time>2026-08-21T14:36:03.187Z</time>
      </trkpt>
      <trkpt lat="47.088915" lon="10.962277">
        <ele>1203.971002</ele>
        <time>2026-08-21T14:36:07.409Z</time>
      </trkpt>
      <trkpt lat="47.088823" lon="10.962084">
        <ele>1202.521267</ele>
        <time>2026-08-21T14:36:10.759Z</time>
      </trkpt>
      <trkpt lat="47.088582" lon="10.962040">
        <ele>1200.326435</ele>
        <time>2026-08-21T14:36:15.832Z</time>
      </trkpt>
      <trkpt lat="47.088572" lon="10.961973">
        <ele>1199.904366</ele>
        <time>2026-08-21T14:36:16.802Z</time>
      </trkpt>
      <trkpt lat="47.088642" lon="10.961903">
        <ele>1199.139015</ele>
        <time>2026-08-21T14:36:18.596Z</time>
      </trkpt>
      <trkpt lat="47.088890" lon="10.961852">
        <ele>1197.346780</ele>
        <time>2026-08-21T14:36:24.020Z</time>
      </trkpt>
      <trkpt lat="47.089026" lon="10.961866">
        <ele>1196.411921</ele>
        <time>2026-08-21T14:36:27.101Z</time>
      </trkpt>
      <trkpt lat="47.089159" lon="10.961975">
        <ele>1195.367547</ele>
        <time>2026-08-21T14:36:30.633Z</time>
      </trkpt>
      <trkpt lat="47.089275" lon="10.962021">
        <ele>1194.543636</ele>
        <time>2026-08-21T14:36:33.537Z</time>
      </trkpt>
      <trkpt lat="47.089569" lon="10.961950">
        <ele>1192.500567</ele>
        <time>2026-08-21T14:36:40.902Z</time>
      </trkpt>
      <trkpt lat="47.089892" lon="10.962241">
        <ele>1189.902229</ele>
        <time>2026-08-21T14:36:50.372Z</time>
      </trkpt>
      <trkpt lat="47.090134" lon="10.962234">
        <ele>1188.242479</ele>
        <time>2026-08-21T14:36:56.235Z</time>
      </trkpt>
      <trkpt lat="47.090741" lon="10.962145">
        <ele>1183.095425</ele>
        <time>2026-08-21T14:37:09.736Z</time>
      </trkpt>
      <trkpt lat="47.090895" lon="10.962049">
        <ele>1181.494017</ele>
        <time>2026-08-21T14:37:13.218Z</time>
      </trkpt>
      <trkpt lat="47.091690" lon="10.960567">
        <ele>1169.254252</ele>
        <time>2026-08-21T14:37:40.150Z</time>
      </trkpt>
      <trkpt lat="47.092527" lon="10.959366">
        <ele>1166.021914</ele>
        <time>2026-08-21T14:38:10.480Z</time>
      </trkpt>
      <trkpt lat="47.092803" lon="10.959252">
        <ele>1165.229911</ele>
        <time>2026-08-21T14:38:19.269Z</time>
      </trkpt>
      <trkpt lat="47.092936" lon="10.959143">
        <ele>1164.809187</ele>
        <time>2026-08-21T14:38:23.928Z</time>
      </trkpt>
      <trkpt lat="47.093621" lon="10.958807">
        <ele>1164.075145</ele>
        <time>2026-08-21T14:38:46.071Z</time>
      </trkpt>
      <trkpt lat="47.093906" lon="10.958501">
        <ele>1163.922849</ele>
        <time>2026-08-21T14:38:56.840Z</time>
      </trkpt>
      <trkpt lat="47.094080" lon="10.958433">
        <ele>1163.845173</ele>
        <time>2026-08-21T14:39:02.209Z</time>
      </trkpt>
      <trkpt lat="47.094384" lon="10.958444">
        <ele>1163.713986</ele>
        <time>2026-08-21T14:39:11.246Z</time>
      </trkpt>
      <trkpt lat="47.094504" lon="10.958403">
        <ele>1163.660835</ele>
        <time>2026-08-21T14:39:14.780Z</time>
      </trkpt>
      <trkpt lat="47.094784" lon="10.958489">
        <ele>1163.537428</ele>
        <time>2026-08-21T14:39:22.595Z</time>
      </trkpt>
      <trkpt lat="47.094980" lon="10.958364">
        <ele>1162.819302</ele>
        <time>2026-08-21T14:39:28.215Z</time>
      </trkpt>
      <trkpt lat="47.095473" lon="10.958551">
        <ele>1161.024978</ele>
        <time>2026-08-21T14:39:41.051Z</time>
      </trkpt>
      <trkpt lat="47.095765" lon="10.958548">
        <ele>1159.995943</ele>
        <time>2026-08-21T14:39:48.195Z</time>
      </trkpt>
      <trkpt lat="47.096206" lon="10.958309">
        <ele>1158.339458</ele>
        <time>2026-08-21T14:39:59.749Z</time>
      </trkpt>
      <trkpt lat="47.096329" lon="10.958101">
        <ele>1157.678489</ele>
        <time>2026-08-21T14:40:04.448Z</time>
      </trkpt>
      <trkpt lat="47.096691" lon="10.958146">
        <ele>1156.793110</ele>
        <time>2026-08-21T14:40:13.807Z</time>
      </trkpt>
      <trkpt lat="47.097199" lon="10.958156">
        <ele>1155.891013</ele>
        <time>2026-08-21T14:40:27.584Z</time>
      </trkpt>
      <trkpt lat="47.097345" lon="10.958118">
        <ele>1155.627734</ele>
        <time>2026-08-21T14:40:31.776Z</time>
      </trkpt>
      <trkpt lat="47.097511" lon="10.957981">
        <ele>1155.289647</ele>
        <time>2026-08-21T14:40:37.259Z</time>
      </trkpt>
      <trkpt lat="47.097609" lon="10.957777">
        <ele>1154.987844</ele>
        <time>2026-08-21T14:40:42.191Z</time>
      </trkpt>
      <trkpt lat="47.097667" lon="10.957582">
        <ele>1154.730620</ele>
        <time>2026-08-21T14:40:46.455Z</time>
      </trkpt>
      <trkpt lat="47.097733" lon="10.957041">
        <ele>1154.066266</ele>
        <time>2026-08-21T14:40:57.534Z</time>
      </trkpt>
      <trkpt lat="47.097742" lon="10.956972">
        <ele>1153.996373</ele>
        <time>2026-08-21T14:40:58.959Z</time>
      </trkpt>
      <trkpt lat="47.097897" lon="10.956146">
        <ele>1153.776543</ele>
        <time>2026-08-21T14:41:16.326Z</time>
      </trkpt>
      <trkpt lat="47.097954" lon="10.956007">
        <ele>1153.734910</ele>
        <time>2026-08-21T14:41:19.590Z</time>
      </trkpt>
      <trkpt lat="47.098165" lon="10.955823">
        <ele>1153.642429</ele>
        <time>2026-08-21T14:41:26.878Z</time>
      </trkpt>
      <trkpt lat="47.098326" lon="10.955761">
        <ele>1153.579699</ele>
        <time>2026-08-21T14:41:31.835Z</time>
      </trkpt>
      <trkpt lat="47.098475" lon="10.955779">
        <ele>1153.523352</ele>
        <time>2026-08-21T14:41:36.307Z</time>
      </trkpt>
      <trkpt lat="47.098609" lon="10.955873">
        <ele>1153.467386</ele>
        <time>2026-08-21T14:41:40.751Z</time>
      </trkpt>
      <trkpt lat="47.098650" lon="10.955863">
        <ele>1153.451722</ele>
        <time>2026-08-21T14:41:42.003Z</time>
      </trkpt>
      <trkpt lat="47.098685" lon="10.955825">
        <ele>1153.435319</ele>
        <time>2026-08-21T14:41:43.298Z</time>
      </trkpt>
      <trkpt lat="47.098683" lon="10.955721">
        <ele>1153.408625</ele>
        <time>2026-08-21T14:41:45.429Z</time>
      </trkpt>
      <trkpt lat="47.098681" lon="10.955556">
        <ele>1153.366285</ele>
        <time>2026-08-21T14:41:48.819Z</time>
      </trkpt>
      <trkpt lat="47.098679" lon="10.955500">
        <ele>1153.351898</ele>
        <time>2026-08-21T14:41:49.768Z</time>
      </trkpt>
      <trkpt lat="47.098660" lon="10.954646">
        <ele>1153.288354</ele>
        <time>2026-08-21T14:42:04.128Z</time>
      </trkpt>
      <trkpt lat="47.098655" lon="10.954379">
        <ele>1153.276018</ele>
        <time>2026-08-21T14:42:08.501Z</time>
      </trkpt>
      <trkpt lat="47.098653" lon="10.954269">
        <ele>1153.270936</ele>
        <time>2026-08-21T14:42:10.289Z</time>
      </trkpt>
      <trkpt lat="47.098655" lon="10.953547">
        <ele>1153.237591</ele>
        <time>2026-08-21T14:42:19.229Z</time>
      </trkpt>
      <trkpt lat="47.098867" lon="10.953533">
        <ele>1153.223194</ele>
        <time>2026-08-21T14:42:23.011Z</time>
      </trkpt>
      <trkpt lat="47.098868" lon="10.953669">
        <ele>1153.216913</ele>
        <time>2026-08-21T14:42:24.656Z</time>
      </trkpt>
      <trkpt lat="47.098891" lon="10.953729">
        <ele>1153.213733</ele>
        <time>2026-08-21T14:42:25.483Z</time>
      </trkpt>
      <trkpt lat="47.098934" lon="10.953762">
        <ele>1153.210441</ele>
        <time>2026-08-21T14:42:26.350Z</time>
      </trkpt>
      <trkpt lat="47.099081" lon="10.953774">
        <ele>1153.199998</ele>
        <time>2026-08-21T14:42:28.958Z</time>
      </trkpt>
      <trkpt lat="47.099319" lon="10.953922">
        <ele>1153.023175</ele>
        <time>2026-08-21T14:42:33.471Z</time>
      </trkpt>
      <trkpt lat="47.099495" lon="10.953977">
        <ele>1152.900065</ele>
        <time>2026-08-21T14:42:36.588Z</time>
      </trkpt>
      <trkpt lat="47.099573" lon="10.954001">
        <ele>1152.845541</ele>
        <time>2026-08-21T14:42:37.978Z</time>
      </trkpt>
      <trkpt lat="47.099778" lon="10.954053">
        <ele>1152.703209</ele>
        <time>2026-08-21T14:42:41.552Z</time>
      </trkpt>
      <trkpt lat="47.100190" lon="10.954102">
        <ele>1152.420406</ele>
        <time>2026-08-21T14:42:48.658Z</time>
      </trkpt>
      <trkpt lat="47.100190" lon="10.954102">
        <ele>1152.420406</ele>
        <time>2026-08-21T14:42:48.662Z</time>
      </trkpt>
      <trkpt lat="47.100189" lon="10.954113">
        <ele>1152.415237</ele>
        <time>2026-08-21T14:42:48.985Z</time>
      </trkpt>
      <trkpt lat="47.100318" lon="10.954134">
        <ele>1152.326438</ele>
        <time>2026-08-21T14:42:54.536Z</time>
      </trkpt>
      <trkpt lat="47.100433" lon="10.954135">
        <ele>1152.247756</ele>
        <time>2026-08-21T14:42:59.454Z</time>
      </trkpt>
      <trkpt lat="47.100490" lon="10.953985">
        <ele>1152.167749</ele>
        <time>2026-08-21T14:43:04.455Z</time>
      </trkpt>
      <trkpt lat="47.100527" lon="10.953686">
        <ele>1152.026213</ele>
        <time>2026-08-21T14:43:13.303Z</time>
      </trkpt>
      <trkpt lat="47.100556" lon="10.953522">
        <ele>1151.935671</ele>
        <time>2026-08-21T14:43:18.236Z</time>
      </trkpt>
      <trkpt lat="47.100591" lon="10.953396">
        <ele>1151.839702</ele>
        <time>2026-08-21T14:43:22.198Z</time>
      </trkpt>
      <trkpt lat="47.100639" lon="10.953280">
        <ele>1151.743970</ele>
        <time>2026-08-21T14:43:26.150Z</time>
      </trkpt>
      <trkpt lat="47.100654" lon="10.953110">
        <ele>1151.623082</ele>
        <time>2026-08-21T14:43:31.140Z</time>
      </trkpt>
      <trkpt lat="47.100756" lon="10.953039">
        <ele>1151.506150</ele>
        <time>2026-08-21T14:43:35.967Z</time>
      </trkpt>
      <trkpt lat="47.100848" lon="10.953019">
        <ele>1151.409802</ele>
        <time>2026-08-21T14:43:39.945Z</time>
      </trkpt>
      <trkpt lat="47.100947" lon="10.952984">
        <ele>1151.304312</ele>
        <time>2026-08-21T14:43:44.300Z</time>
      </trkpt>
      <trkpt lat="47.101055" lon="10.952958">
        <ele>1151.190934</ele>
        <time>2026-08-21T14:43:48.980Z</time>
      </trkpt>
      <trkpt lat="47.101084" lon="10.952926">
        <ele>1151.153359</ele>
        <time>2026-08-21T14:43:50.515Z</time>
      </trkpt>
      <trkpt lat="47.100568" lon="10.953102">
        <ele>1150.604574</ele>
        <time>2026-08-21T14:43:59.467Z</time>
      </trkpt>
      <trkpt lat="47.100565" lon="10.952892">
        <ele>1150.456449</ele>
        <time>2026-08-21T14:44:01.758Z</time>
      </trkpt>
      <trkpt lat="47.100563" lon="10.952786">
        <ele>1150.381668</ele>
        <time>2026-08-21T14:44:02.901Z</time>
      </trkpt>
      <trkpt lat="47.100555" lon="10.952141">
        <ele>1149.926362</ele>
        <time>2026-08-21T14:44:09.846Z</time>
      </trkpt>
      <trkpt lat="47.100550" lon="10.951446">
        <ele>1149.435199</ele>
        <time>2026-08-21T14:44:17.621Z</time>
      </trkpt>
      <trkpt lat="47.100550" lon="10.951213">
        <ele>1149.270545</ele>
        <time>2026-08-21T14:44:20.132Z</time>
      </trkpt>
      <trkpt lat="47.100551" lon="10.951173">
        <ele>1149.242259</ele>
        <time>2026-08-21T14:44:20.591Z</time>
      </trkpt>
      <trkpt lat="47.100555" lon="10.950867">
        <ele>1149.025979</ele>
        <time>2026-08-21T14:44:23.988Z</time>
      </trkpt>
      <trkpt lat="47.100573" lon="10.950230">
        <ele>1148.575443</ele>
        <time>2026-08-21T14:44:31.350Z</time>
      </trkpt>
      <trkpt lat="47.100342" lon="10.950176">
        <ele>1148.332618</ele>
        <time>2026-08-21T14:44:36.000Z</time>
      </trkpt>
      <trkpt lat="47.099734" lon="10.949977">
        <ele>1148.257585</ele>
        <time>2026-08-21T14:44:49.340Z</time>
      </trkpt>
      <trkpt lat="47.099241" lon="10.949727">
        <ele>1148.275448</ele>
        <time>2026-08-21T14:44:59.967Z</time>
      </trkpt>
      <trkpt lat="47.098703" lon="10.949521">
        <ele>1148.294490</ele>
        <time>2026-08-21T14:45:11.412Z</time>
      </trkpt>
      <trkpt lat="47.098359" lon="10.949309">
        <ele>1148.386097</ele>
        <time>2026-08-21T14:45:18.965Z</time>
      </trkpt>
      <trkpt lat="47.098129" lon="10.949108">
        <ele>1148.509319</ele>
        <time>2026-08-21T14:45:24.350Z</time>
      </trkpt>
      <trkpt lat="47.098048" lon="10.949095">
        <ele>1148.546836</ele>
        <time>2026-08-21T14:45:26.005Z</time>
      </trkpt>
      <trkpt lat="47.097926" lon="10.949149">
        <ele>1148.605502</ele>
        <time>2026-08-21T14:45:28.603Z</time>
      </trkpt>
      <trkpt lat="47.097805" lon="10.949149">
        <ele>1148.661214</ele>
        <time>2026-08-21T14:45:31.077Z</time>
      </trkpt>
      <trkpt lat="47.097412" lon="10.948939">
        <ele>1148.853763</ele>
        <time>2026-08-21T14:45:39.953Z</time>
      </trkpt>
      <trkpt lat="47.097247" lon="10.948841">
        <ele>1148.935709</ele>
        <time>2026-08-21T14:45:43.898Z</time>
      </trkpt>
      <trkpt lat="47.097025" lon="10.948709">
        <ele>1149.045980</ele>
        <time>2026-08-21T14:45:49.373Z</time>
      </trkpt>
      <trkpt lat="47.096629" lon="10.948596">
        <ele>1149.316163</ele>
        <time>2026-08-21T14:45:58.742Z</time>
      </trkpt>
      <trkpt lat="47.095678" lon="10.947972">
        <ele>1150.190284</ele>
        <time>2026-08-21T14:46:22.428Z</time>
      </trkpt>
      <trkpt lat="47.095557" lon="10.947991">
        <ele>1150.292411</ele>
        <time>2026-08-21T14:46:26.153Z</time>
      </trkpt>
      <trkpt lat="47.094777" lon="10.947729">
        <ele>1150.710060</ele>
        <time>2026-08-21T14:46:50.297Z</time>
      </trkpt>
      <trkpt lat="47.094251" lon="10.947627">
        <ele>1150.807901</ele>
        <time>2026-08-21T14:47:06.158Z</time>
      </trkpt>
      <trkpt lat="47.093526" lon="10.947572">
        <ele>1150.941776</ele>
        <time>2026-08-21T14:47:27.778Z</time>
      </trkpt>
      <trkpt lat="47.092609" lon="10.947592">
        <ele>1151.747062</ele>
        <time>2026-08-21T14:47:55.693Z</time>
      </trkpt>
      <trkpt lat="47.092293" lon="10.947471">
        <ele>1152.079683</ele>
        <time>2026-08-21T14:48:05.735Z</time>
      </trkpt>
      <trkpt lat="47.092024" lon="10.947418">
        <ele>1152.356129</ele>
        <time>2026-08-21T14:48:14.141Z</time>
      </trkpt>
      <trkpt lat="47.091359" lon="10.947375">
        <ele>1153.070254</ele>
        <time>2026-08-21T14:48:34.857Z</time>
      </trkpt>
      <trkpt lat="47.090600" lon="10.947490">
        <ele>1153.968551</ele>
        <time>2026-08-21T14:48:58.568Z</time>
      </trkpt>
      <trkpt lat="47.090362" lon="10.947582">
        <ele>1154.258285</ele>
        <time>2026-08-21T14:49:06.158Z</time>
      </trkpt>
      <trkpt lat="47.089550" lon="10.948211">
        <ele>1155.036575</ele>
        <time>2026-08-21T14:49:34.011Z</time>
      </trkpt>
      <trkpt lat="47.089393" lon="10.948472">
        <ele>1155.114341</ele>
        <time>2026-08-21T14:49:41.155Z</time>
      </trkpt>
      <trkpt lat="47.089230" lon="10.948646">
        <ele>1155.180425</ele>
        <time>2026-08-21T14:49:47.193Z</time>
      </trkpt>
      <trkpt lat="47.089317" lon="10.949048">
        <ele>1155.274613</ele>
        <time>2026-08-21T14:49:52.601Z</time>
      </trkpt>
      <trkpt lat="47.089337" lon="10.949243">
        <ele>1155.318646</ele>
        <time>2026-08-21T14:49:56.634Z</time>
      </trkpt>
      <trkpt lat="47.089318" lon="10.949322">
        <ele>1155.337354</ele>
        <time>2026-08-21T14:49:58.343Z</time>
      </trkpt>
      <trkpt lat="47.089113" lon="10.949496">
        <ele>1155.415004</ele>
        <time>2026-08-21T14:50:05.472Z</time>
      </trkpt>
      <trkpt lat="47.088951" lon="10.949552">
        <ele>1155.469584</ele>
        <time>2026-08-21T14:50:10.479Z</time>
      </trkpt>
      <trkpt lat="47.088733" lon="10.949700">
        <ele>1155.578721</ele>
        <time>2026-08-21T14:50:17.751Z</time>
      </trkpt>
      <trkpt lat="47.088070" lon="10.950226">
        <ele>1156.019861</ele>
        <time>2026-08-21T14:50:40.686Z</time>
      </trkpt>
      <trkpt lat="47.087227" lon="10.951175">
        <ele>1156.684829</ele>
        <time>2026-08-21T14:51:13.075Z</time>
      </trkpt>
      <trkpt lat="47.086759" lon="10.951769">
        <ele>1157.244671</ele>
        <time>2026-08-21T14:51:32.071Z</time>
      </trkpt>
      <trkpt lat="47.086591" lon="10.951832">
        <ele>1157.401605</ele>
        <time>2026-08-21T14:51:37.393Z</time>
      </trkpt>
      <trkpt lat="47.086484" lon="10.951910">
        <ele>1157.509723</ele>
        <time>2026-08-21T14:51:41.063Z</time>
      </trkpt>
      <trkpt lat="47.086379" lon="10.952044">
        <ele>1157.635624</ele>
        <time>2026-08-21T14:51:45.339Z</time>
      </trkpt>
      <trkpt lat="47.086074" lon="10.952314">
        <ele>1157.957947</ele>
        <time>2026-08-21T14:51:56.254Z</time>
      </trkpt>
      <trkpt lat="47.085753" lon="10.952657">
        <ele>1158.309243</ele>
        <time>2026-08-21T14:52:08.449Z</time>
      </trkpt>
      <trkpt lat="47.085436" lon="10.953053">
        <ele>1158.662128</ele>
        <time>2026-08-21T14:52:21.218Z</time>
      </trkpt>
      <trkpt lat="47.084862" lon="10.953609">
        <ele>1159.245182</ele>
        <time>2026-08-21T14:52:42.277Z</time>
      </trkpt>
      <trkpt lat="47.084630" lon="10.953804">
        <ele>1159.471845</ele>
        <time>2026-08-21T14:52:50.467Z</time>
      </trkpt>
      <trkpt lat="47.084540" lon="10.953850">
        <ele>1159.552650</ele>
        <time>2026-08-21T14:52:53.379Z</time>
      </trkpt>
      <trkpt lat="47.084439" lon="10.953857">
        <ele>1159.638388</ele>
        <time>2026-08-21T14:52:56.498Z</time>
      </trkpt>
      <trkpt lat="47.084364" lon="10.953850">
        <ele>1159.702112</ele>
        <time>2026-08-21T14:52:58.797Z</time>
      </trkpt>
      <trkpt lat="47.084103" lon="10.953955">
        <ele>1159.793644</ele>
        <time>2026-08-21T14:53:04.784Z</time>
      </trkpt>
      <trkpt lat="47.084086" lon="10.953966">
        <ele>1159.799332</ele>
        <time>2026-08-21T14:53:05.185Z</time>
      </trkpt>
      <trkpt lat="47.084012" lon="10.954016">
        <ele>1159.824270</ele>
        <time>2026-08-21T14:53:06.985Z</time>
      </trkpt>
      <trkpt lat="47.083590" lon="10.954213">
        <ele>1159.959836</ele>
        <time>2026-08-21T14:53:20.451Z</time>
      </trkpt>
      <trkpt lat="47.082941" lon="10.954647">
        <ele>1160.178159</ele>
        <time>2026-08-21T14:53:41.890Z</time>
      </trkpt>
      <trkpt lat="47.082432" lon="10.954871">
        <ele>1160.195365</ele>
        <time>2026-08-21T14:53:57.752Z</time>
      </trkpt>
      <trkpt lat="47.081576" lon="10.955181">
        <ele>1159.938067</ele>
        <time>2026-08-21T14:54:24.051Z</time>
      </trkpt>
      <trkpt lat="47.081310" lon="10.955227">
        <ele>1159.859902</ele>
        <time>2026-08-21T14:54:32.035Z</time>
      </trkpt>
      <trkpt lat="47.081040" lon="10.955223">
        <ele>1159.781101</ele>
        <time>2026-08-21T14:54:40.097Z</time>
      </trkpt>
      <trkpt lat="47.080554" lon="10.955322">
        <ele>1160.000485</ele>
        <time>2026-08-21T14:54:54.741Z</time>
      </trkpt>
      <trkpt lat="47.079344" lon="10.955841">
        <ele>1160.920880</ele>
        <time>2026-08-21T14:55:33.476Z</time>
      </trkpt>
      <trkpt lat="47.078503" lon="10.956346">
        <ele>1161.661565</ele>
        <time>2026-08-21T14:56:01.467Z</time>
      </trkpt>
      <trkpt lat="47.078230" lon="10.956407">
        <ele>1161.892611</ele>
        <time>2026-08-21T14:56:09.886Z</time>
      </trkpt>
      <trkpt lat="47.078185" lon="10.956409">
        <ele>1161.930279</ele>
        <time>2026-08-21T14:56:11.250Z</time>
      </trkpt>
      <trkpt lat="47.077565" lon="10.956440">
        <ele>1162.449328</ele>
        <time>2026-08-21T14:56:30.107Z</time>
      </trkpt>
      <trkpt lat="47.076993" lon="10.956466">
        <ele>1163.112575</ele>
        <time>2026-08-21T14:56:47.592Z</time>
      </trkpt>
      <trkpt lat="47.076591" lon="10.956541">
        <ele>1163.621316</ele>
        <time>2026-08-21T14:57:00.053Z</time>
      </trkpt>
      <trkpt lat="47.076223" lon="10.956666">
        <ele>1164.095515</ele>
        <time>2026-08-21T14:57:11.757Z</time>
      </trkpt>
      <trkpt lat="47.076035" lon="10.956779">
        <ele>1164.350545</ele>
        <time>2026-08-21T14:57:18.080Z</time>
      </trkpt>
      <trkpt lat="47.075868" lon="10.956945">
        <ele>1164.603724</ele>
        <time>2026-08-21T14:57:24.357Z</time>
      </trkpt>
      <trkpt lat="47.075004" lon="10.958048">
        <ele>1166.180437</ele>
        <time>2026-08-21T14:58:00.030Z</time>
      </trkpt>
      <trkpt lat="47.074645" lon="10.958403">
        <ele>1166.785724</ele>
        <time>2026-08-21T14:58:13.348Z</time>
      </trkpt>
      <trkpt lat="47.074143" lon="10.958803">
        <ele>1167.613490</ele>
        <time>2026-08-21T14:58:30.878Z</time>
      </trkpt>
      <trkpt lat="47.073858" lon="10.959066">
        <ele>1168.138578</ele>
        <time>2026-08-21T14:58:41.150Z</time>
      </trkpt>
      <trkpt lat="47.073216" lon="10.959782">
        <ele>1169.396182</ele>
        <time>2026-08-21T14:59:05.636Z</time>
      </trkpt>
      <trkpt lat="47.072681" lon="10.960518">
        <ele>1170.515085</ele>
        <time>2026-08-21T14:59:30.335Z</time>
      </trkpt>
      <trkpt lat="47.072410" lon="10.960878">
        <ele>1171.050005</ele>
        <time>2026-08-21T14:59:42.008Z</time>
      </trkpt>
      <trkpt lat="47.072207" lon="10.961098">
        <ele>1171.419312</ele>
        <time>2026-08-21T14:59:49.757Z</time>
      </trkpt>
      <trkpt lat="47.071987" lon="10.961298">
        <ele>1171.798056</ele>
        <time>2026-08-21T14:59:57.801Z</time>
      </trkpt>
      <trkpt lat="47.071882" lon="10.961428">
        <ele>1171.999093</ele>
        <time>2026-08-21T15:00:00.799Z</time>
      </trkpt>
      <trkpt lat="47.071922" lon="10.961509">
        <ele>1172.098834</ele>
        <time>2026-08-21T15:00:02.171Z</time>
      </trkpt>
      <trkpt lat="47.072083" lon="10.961888">
        <ele>1172.544128</ele>
        <time>2026-08-21T15:00:08.662Z</time>
      </trkpt>
      <trkpt lat="47.072174" lon="10.962169">
        <ele>1172.708306</ele>
        <time>2026-08-21T15:00:12.610Z</time>
      </trkpt>
      <trkpt lat="47.072179" lon="10.962271">
        <ele>1172.630540</ele>
        <time>2026-08-21T15:00:13.748Z</time>
      </trkpt>
      <trkpt lat="47.072114" lon="10.962568">
        <ele>1172.393311</ele>
        <time>2026-08-21T15:00:16.885Z</time>
      </trkpt>
      <trkpt lat="47.072070" lon="10.963446">
        <ele>1171.723827</ele>
        <time>2026-08-21T15:00:25.161Z</time>
      </trkpt>
      <trkpt lat="47.072090" lon="10.963631">
        <ele>1171.581381</ele>
        <time>2026-08-21T15:00:27.297Z</time>
      </trkpt>
      <trkpt lat="47.072209" lon="10.964026">
        <ele>1171.252928</ele>
        <time>2026-08-21T15:00:32.608Z</time>
      </trkpt>
      <trkpt lat="47.072231" lon="10.964110">
        <ele>1171.184490</ele>
        <time>2026-08-21T15:00:33.820Z</time>
      </trkpt>
      <trkpt lat="47.072307" lon="10.964393">
        <ele>1170.953156</ele>
        <time>2026-08-21T15:00:37.925Z</time>
      </trkpt>
      <trkpt lat="47.072347" lon="10.965436">
        <ele>1171.511281</ele>
        <time>2026-08-21T15:00:52.866Z</time>
      </trkpt>
      <trkpt lat="47.072360" lon="10.965756">
        <ele>1171.812966</ele>
        <time>2026-08-21T15:00:57.827Z</time>
      </trkpt>
      <trkpt lat="47.072365" lon="10.965880">
        <ele>1171.929866</ele>
        <time>2026-08-21T15:00:59.806Z</time>
      </trkpt>
      <trkpt lat="47.073020" lon="10.968412">
        <ele>1173.592366</ele>
        <time>2026-08-21T15:01:39.971Z</time>
      </trkpt>
      <trkpt lat="47.073873" lon="10.968488">
        <ele>1173.922371</ele>
        <time>2026-08-21T15:01:54.915Z</time>
      </trkpt>
      <trkpt lat="47.074223" lon="10.968506">
        <ele>1173.943122</ele>
        <time>2026-08-21T15:02:00.771Z</time>
      </trkpt>
      <trkpt lat="47.074371" lon="10.968513">
        <ele>1173.943122</ele>
        <time>2026-08-21T15:02:03.260Z</time>
      </trkpt>
      <trkpt lat="47.074648" lon="10.968527">
        <ele>1173.943122</ele>
        <time>2026-08-21T15:02:08.001Z</time>
      </trkpt>
      <trkpt lat="47.075070" lon="10.968548">
        <ele>1173.943122</ele>
        <time>2026-08-21T15:02:15.376Z</time>
      </trkpt>
      <trkpt lat="47.075263" lon="10.968642">
        <ele>1173.943122</ele>
        <time>2026-08-21T15:02:18.970Z</time>
      </trkpt>
      <trkpt lat="47.075421" lon="10.969027">
        <ele>1173.943122</ele>
        <time>2026-08-21T15:02:24.415Z</time>
      </trkpt>
    </trkseg>
  </trk>
</gpx>